<?xml version="1.0" encoding="UTF-8" standalone="no" ?>
<gpx xmlns="http://www.topografix.com/GPX/1/1" xmlns:xsi="http://www.w3.org/2001/XMLSchema-instance" xsi:schemaLocation="http://www.topografix.com/GPX/1/1 http://www.topografix.com/GPX/1/1/gpx.xsd" version="1.1" creator="VisuGPX - https://www.visugpx.com">
  <metadata>
    <name>Les Jottis</name>
    <desc><![CDATA[La montée au départ de Chauméty est vraiment très -trop- raide, même avec l'assistance !]]></desc>
  </metadata>
  <trk>
    <name><![CDATA[2021-08-22 Les Jottis]]></name>
    <trkseg>
      <trkpt lat="46.19422" lon="6.49658">
        <ele>873.203125</ele>
        <time>2021-08-22T13:58:26Z</time>
      </trkpt>
      <trkpt lat="46.19422" lon="6.49659">
        <ele>873.16796875</ele>
        <time>2021-08-22T13:58:57Z</time>
      </trkpt>
      <trkpt lat="46.1942" lon="6.49656">
        <ele>873.27734375</ele>
        <time>2021-08-22T13:59:07Z</time>
      </trkpt>
      <trkpt lat="46.19416" lon="6.49644">
        <ele>874.34765625</ele>
        <time>2021-08-22T13:59:20Z</time>
      </trkpt>
      <trkpt lat="46.19416" lon="6.49643">
        <ele>874.33203125</ele>
        <time>2021-08-22T13:59:27Z</time>
      </trkpt>
      <trkpt lat="46.19417" lon="6.49639">
        <ele>874.91796875</ele>
        <time>2021-08-22T13:59:37Z</time>
      </trkpt>
      <trkpt lat="46.19416" lon="6.49638">
        <ele>874.90625</ele>
        <time>2021-08-22T14:00:09Z</time>
      </trkpt>
      <trkpt lat="46.19415" lon="6.49636">
        <ele>875.125</ele>
        <time>2021-08-22T14:00:38Z</time>
      </trkpt>
      <trkpt lat="46.1942" lon="6.49634">
        <ele>875.7265625</ele>
        <time>2021-08-22T14:00:50Z</time>
      </trkpt>
      <trkpt lat="46.1943" lon="6.49637">
        <ele>876.1015625</ele>
        <time>2021-08-22T14:00:56Z</time>
      </trkpt>
      <trkpt lat="46.19442" lon="6.49647">
        <ele>875.74609375</ele>
        <time>2021-08-22T14:01:00Z</time>
      </trkpt>
      <trkpt lat="46.19462" lon="6.4963">
        <ele>878.1875</ele>
        <time>2021-08-22T14:01:07Z</time>
      </trkpt>
      <trkpt lat="46.19461" lon="6.49625">
        <ele>878.6796875</ele>
        <time>2021-08-22T14:01:08Z</time>
      </trkpt>
      <trkpt lat="46.19463" lon="6.49622">
        <ele>879.05859375</ele>
        <time>2021-08-22T14:01:09Z</time>
      </trkpt>
      <trkpt lat="46.19465" lon="6.49621">
        <ele>879.203125</ele>
        <time>2021-08-22T14:01:10Z</time>
      </trkpt>
      <trkpt lat="46.19466" lon="6.49623">
        <ele>879.08984375</ele>
        <time>2021-08-22T14:01:11Z</time>
      </trkpt>
      <trkpt lat="46.19467" lon="6.49626">
        <ele>878.78125</ele>
        <time>2021-08-22T14:01:12Z</time>
      </trkpt>
      <trkpt lat="46.19467" lon="6.49631">
        <ele>878.2890625</ele>
        <time>2021-08-22T14:01:13Z</time>
      </trkpt>
      <trkpt lat="46.19469" lon="6.49651">
        <ele>876.80859375</ele>
        <time>2021-08-22T14:01:16Z</time>
      </trkpt>
      <trkpt lat="46.19471" lon="6.49659">
        <ele>876.31640625</ele>
        <time>2021-08-22T14:01:17Z</time>
      </trkpt>
      <trkpt lat="46.19474" lon="6.49667">
        <ele>876.00390625</ele>
        <time>2021-08-22T14:01:18Z</time>
      </trkpt>
      <trkpt lat="46.19479" lon="6.49673">
        <ele>875.859375</ele>
        <time>2021-08-22T14:01:19Z</time>
      </trkpt>
      <trkpt lat="46.19484" lon="6.49679">
        <ele>875.8671875</ele>
        <time>2021-08-22T14:01:20Z</time>
      </trkpt>
      <trkpt lat="46.19501" lon="6.49697">
        <ele>875.8046875</ele>
        <time>2021-08-22T14:01:23Z</time>
      </trkpt>
      <trkpt lat="46.19514" lon="6.49714">
        <ele>875.7265625</ele>
        <time>2021-08-22T14:01:26Z</time>
      </trkpt>
      <trkpt lat="46.19515" lon="6.49721">
        <ele>875.59375</ele>
        <time>2021-08-22T14:01:27Z</time>
      </trkpt>
      <trkpt lat="46.19515" lon="6.49728">
        <ele>875.3203125</ele>
        <time>2021-08-22T14:01:28Z</time>
      </trkpt>
      <trkpt lat="46.19513" lon="6.49733">
        <ele>875.09765625</ele>
        <time>2021-08-22T14:01:29Z</time>
      </trkpt>
      <trkpt lat="46.19514" lon="6.49737">
        <ele>875</ele>
        <time>2021-08-22T14:01:30Z</time>
      </trkpt>
      <trkpt lat="46.19516" lon="6.49741">
        <ele>874.953125</ele>
        <time>2021-08-22T14:01:31Z</time>
      </trkpt>
      <trkpt lat="46.19518" lon="6.49745">
        <ele>874.9765625</ele>
        <time>2021-08-22T14:01:32Z</time>
      </trkpt>
      <trkpt lat="46.19522" lon="6.49755">
        <ele>875.12109375</ele>
        <time>2021-08-22T14:01:34Z</time>
      </trkpt>
      <trkpt lat="46.19524" lon="6.49762">
        <ele>875.18359375</ele>
        <time>2021-08-22T14:01:35Z</time>
      </trkpt>
      <trkpt lat="46.19526" lon="6.49776">
        <ele>875.25</ele>
        <time>2021-08-22T14:01:37Z</time>
      </trkpt>
      <trkpt lat="46.19526" lon="6.49781">
        <ele>875.25</ele>
        <time>2021-08-22T14:01:38Z</time>
      </trkpt>
      <trkpt lat="46.19527" lon="6.49794">
        <ele>875.31640625</ele>
        <time>2021-08-22T14:01:41Z</time>
      </trkpt>
      <trkpt lat="46.19531" lon="6.49799">
        <ele>875.4296875</ele>
        <time>2021-08-22T14:01:42Z</time>
      </trkpt>
      <trkpt lat="46.19546" lon="6.49816">
        <ele>875.98828125</ele>
        <time>2021-08-22T14:01:46Z</time>
      </trkpt>
      <trkpt lat="46.19549" lon="6.49822">
        <ele>876.1015625</ele>
        <time>2021-08-22T14:01:47Z</time>
      </trkpt>
      <trkpt lat="46.19565" lon="6.49847">
        <ele>876.65625</ele>
        <time>2021-08-22T14:01:52Z</time>
      </trkpt>
      <trkpt lat="46.19581" lon="6.49859">
        <ele>877.25</ele>
        <time>2021-08-22T14:01:56Z</time>
      </trkpt>
      <trkpt lat="46.1961" lon="6.49863">
        <ele>878</ele>
        <time>2021-08-22T14:02:02Z</time>
      </trkpt>
      <trkpt lat="46.19647" lon="6.49883">
        <ele>878.60546875</ele>
        <time>2021-08-22T14:02:10Z</time>
      </trkpt>
      <trkpt lat="46.19687" lon="6.49903">
        <ele>879</ele>
        <time>2021-08-22T14:02:19Z</time>
      </trkpt>
      <trkpt lat="46.19692" lon="6.499">
        <ele>879</ele>
        <time>2021-08-22T14:02:20Z</time>
      </trkpt>
      <trkpt lat="46.19711" lon="6.49894">
        <ele>879</ele>
        <time>2021-08-22T14:02:23Z</time>
      </trkpt>
      <trkpt lat="46.19765" lon="6.49874">
        <ele>879</ele>
        <time>2021-08-22T14:02:31Z</time>
      </trkpt>
      <trkpt lat="46.19792" lon="6.49899">
        <ele>879</ele>
        <time>2021-08-22T14:02:38Z</time>
      </trkpt>
      <trkpt lat="46.19798" lon="6.49915">
        <ele>879</ele>
        <time>2021-08-22T14:02:41Z</time>
      </trkpt>
      <trkpt lat="46.19807" lon="6.49928">
        <ele>879</ele>
        <time>2021-08-22T14:02:44Z</time>
      </trkpt>
      <trkpt lat="46.19837" lon="6.49936">
        <ele>879</ele>
        <time>2021-08-22T14:02:51Z</time>
      </trkpt>
      <trkpt lat="46.1987" lon="6.4994">
        <ele>879</ele>
        <time>2021-08-22T14:02:57Z</time>
      </trkpt>
      <trkpt lat="46.19872" lon="6.49946">
        <ele>879</ele>
        <time>2021-08-22T14:02:58Z</time>
      </trkpt>
      <trkpt lat="46.19873" lon="6.49952">
        <ele>879</ele>
        <time>2021-08-22T14:02:59Z</time>
      </trkpt>
      <trkpt lat="46.19874" lon="6.49957">
        <ele>879</ele>
        <time>2021-08-22T14:03:00Z</time>
      </trkpt>
      <trkpt lat="46.19876" lon="6.49962">
        <ele>879</ele>
        <time>2021-08-22T14:03:01Z</time>
      </trkpt>
      <trkpt lat="46.19879" lon="6.49965">
        <ele>879</ele>
        <time>2021-08-22T14:03:02Z</time>
      </trkpt>
      <trkpt lat="46.19883" lon="6.49965">
        <ele>879</ele>
        <time>2021-08-22T14:03:03Z</time>
      </trkpt>
      <trkpt lat="46.19887" lon="6.49961">
        <ele>879</ele>
        <time>2021-08-22T14:03:04Z</time>
      </trkpt>
      <trkpt lat="46.19891" lon="6.49955">
        <ele>879</ele>
        <time>2021-08-22T14:03:05Z</time>
      </trkpt>
      <trkpt lat="46.19894" lon="6.49949">
        <ele>879</ele>
        <time>2021-08-22T14:03:06Z</time>
      </trkpt>
      <trkpt lat="46.19942" lon="6.49884">
        <ele>879</ele>
        <time>2021-08-22T14:03:19Z</time>
      </trkpt>
      <trkpt lat="46.19948" lon="6.49876">
        <ele>879.2109375</ele>
        <time>2021-08-22T14:03:21Z</time>
      </trkpt>
      <trkpt lat="46.19952" lon="6.49872">
        <ele>879.33984375</ele>
        <time>2021-08-22T14:03:22Z</time>
      </trkpt>
      <trkpt lat="46.1996" lon="6.49862">
        <ele>879.70703125</ele>
        <time>2021-08-22T14:03:25Z</time>
      </trkpt>
      <trkpt lat="46.19992" lon="6.49822">
        <ele>881.234375</ele>
        <time>2021-08-22T14:03:36Z</time>
      </trkpt>
      <trkpt lat="46.19996" lon="6.49819">
        <ele>881.45703125</ele>
        <time>2021-08-22T14:03:37Z</time>
      </trkpt>
      <trkpt lat="46.2" lon="6.49818">
        <ele>881.65234375</ele>
        <time>2021-08-22T14:03:38Z</time>
      </trkpt>
      <trkpt lat="46.20005" lon="6.49819">
        <ele>881.77734375</ele>
        <time>2021-08-22T14:03:39Z</time>
      </trkpt>
      <trkpt lat="46.2001" lon="6.49823">
        <ele>881.79296875</ele>
        <time>2021-08-22T14:03:40Z</time>
      </trkpt>
      <trkpt lat="46.20014" lon="6.49829">
        <ele>881.64453125</ele>
        <time>2021-08-22T14:03:41Z</time>
      </trkpt>
      <trkpt lat="46.20018" lon="6.49835">
        <ele>881.33984375</ele>
        <time>2021-08-22T14:03:42Z</time>
      </trkpt>
      <trkpt lat="46.20022" lon="6.49842">
        <ele>881</ele>
        <time>2021-08-22T14:03:43Z</time>
      </trkpt>
      <trkpt lat="46.20025" lon="6.49849">
        <ele>880.62890625</ele>
        <time>2021-08-22T14:03:44Z</time>
      </trkpt>
      <trkpt lat="46.20028" lon="6.49856">
        <ele>880.31640625</ele>
        <time>2021-08-22T14:03:45Z</time>
      </trkpt>
      <trkpt lat="46.20031" lon="6.49864">
        <ele>880.29296875</ele>
        <time>2021-08-22T14:03:46Z</time>
      </trkpt>
      <trkpt lat="46.20034" lon="6.49871">
        <ele>880.2109375</ele>
        <time>2021-08-22T14:03:47Z</time>
      </trkpt>
      <trkpt lat="46.20063" lon="6.49918">
        <ele>879.7109375</ele>
        <time>2021-08-22T14:03:53Z</time>
      </trkpt>
      <trkpt lat="46.20069" lon="6.49923">
        <ele>879.5</ele>
        <time>2021-08-22T14:03:54Z</time>
      </trkpt>
      <trkpt lat="46.20076" lon="6.49928">
        <ele>879.31640625</ele>
        <time>2021-08-22T14:03:55Z</time>
      </trkpt>
      <trkpt lat="46.20083" lon="6.49932">
        <ele>879.1328125</ele>
        <time>2021-08-22T14:03:56Z</time>
      </trkpt>
      <trkpt lat="46.2009" lon="6.49934">
        <ele>879.04296875</ele>
        <time>2021-08-22T14:03:57Z</time>
      </trkpt>
      <trkpt lat="46.20124" lon="6.49949">
        <ele>878.1796875</ele>
        <time>2021-08-22T14:04:02Z</time>
      </trkpt>
      <trkpt lat="46.2013" lon="6.49953">
        <ele>878.015625</ele>
        <time>2021-08-22T14:04:03Z</time>
      </trkpt>
      <trkpt lat="46.20136" lon="6.49958">
        <ele>878.0625</ele>
        <time>2021-08-22T14:04:04Z</time>
      </trkpt>
      <trkpt lat="46.20141" lon="6.49963">
        <ele>878.02734375</ele>
        <time>2021-08-22T14:04:05Z</time>
      </trkpt>
      <trkpt lat="46.20146" lon="6.49969">
        <ele>878</ele>
        <time>2021-08-22T14:04:06Z</time>
      </trkpt>
      <trkpt lat="46.2015" lon="6.49975">
        <ele>878</ele>
        <time>2021-08-22T14:04:07Z</time>
      </trkpt>
      <trkpt lat="46.20154" lon="6.49983">
        <ele>878</ele>
        <time>2021-08-22T14:04:08Z</time>
      </trkpt>
      <trkpt lat="46.20157" lon="6.4999">
        <ele>878</ele>
        <time>2021-08-22T14:04:09Z</time>
      </trkpt>
      <trkpt lat="46.20208" lon="6.50088">
        <ele>880.27734375</ele>
        <time>2021-08-22T14:04:23Z</time>
      </trkpt>
      <trkpt lat="46.20234" lon="6.5018">
        <ele>886.46484375</ele>
        <time>2021-08-22T14:04:37Z</time>
      </trkpt>
      <trkpt lat="46.20252" lon="6.50236">
        <ele>890.88671875</ele>
        <time>2021-08-22T14:04:49Z</time>
      </trkpt>
      <trkpt lat="46.20276" lon="6.50266">
        <ele>893.95703125</ele>
        <time>2021-08-22T14:05:00Z</time>
      </trkpt>
      <trkpt lat="46.20345" lon="6.50239">
        <ele>894.49609375</ele>
        <time>2021-08-22T14:05:16Z</time>
      </trkpt>
      <trkpt lat="46.20434" lon="6.5021">
        <ele>894.640625</ele>
        <time>2021-08-22T14:05:31Z</time>
      </trkpt>
      <trkpt lat="46.20463" lon="6.50204">
        <ele>894.20703125</ele>
        <time>2021-08-22T14:05:36Z</time>
      </trkpt>
      <trkpt lat="46.2047" lon="6.50205">
        <ele>893.99609375</ele>
        <time>2021-08-22T14:05:37Z</time>
      </trkpt>
      <trkpt lat="46.20562" lon="6.50224">
        <ele>893.609375</ele>
        <time>2021-08-22T14:05:50Z</time>
      </trkpt>
      <trkpt lat="46.2063" lon="6.50232">
        <ele>894.05078125</ele>
        <time>2021-08-22T14:06:00Z</time>
      </trkpt>
      <trkpt lat="46.20735" lon="6.50203">
        <ele>891.48828125</ele>
        <time>2021-08-22T14:06:17Z</time>
      </trkpt>
      <trkpt lat="46.20756" lon="6.50197">
        <ele>892.08984375</ele>
        <time>2021-08-22T14:06:21Z</time>
      </trkpt>
      <trkpt lat="46.20775" lon="6.50193">
        <ele>892.6796875</ele>
        <time>2021-08-22T14:06:25Z</time>
      </trkpt>
      <trkpt lat="46.2078" lon="6.50192">
        <ele>892.796875</ele>
        <time>2021-08-22T14:06:26Z</time>
      </trkpt>
      <trkpt lat="46.20786" lon="6.50191">
        <ele>892.93359375</ele>
        <time>2021-08-22T14:06:27Z</time>
      </trkpt>
      <trkpt lat="46.20791" lon="6.50191">
        <ele>893.08203125</ele>
        <time>2021-08-22T14:06:28Z</time>
      </trkpt>
      <trkpt lat="46.20795" lon="6.5019">
        <ele>893.19140625</ele>
        <time>2021-08-22T14:06:29Z</time>
      </trkpt>
      <trkpt lat="46.208" lon="6.50189">
        <ele>893.28125</ele>
        <time>2021-08-22T14:06:30Z</time>
      </trkpt>
      <trkpt lat="46.20805" lon="6.50188">
        <ele>893.36328125</ele>
        <time>2021-08-22T14:06:31Z</time>
      </trkpt>
      <trkpt lat="46.20839" lon="6.5018">
        <ele>894.0546875</ele>
        <time>2021-08-22T14:06:38Z</time>
      </trkpt>
      <trkpt lat="46.20845" lon="6.5018">
        <ele>894.265625</ele>
        <time>2021-08-22T14:06:39Z</time>
      </trkpt>
      <trkpt lat="46.20927" lon="6.50197">
        <ele>895.7734375</ele>
        <time>2021-08-22T14:06:53Z</time>
      </trkpt>
      <trkpt lat="46.21026" lon="6.50228">
        <ele>896.94140625</ele>
        <time>2021-08-22T14:07:09Z</time>
      </trkpt>
      <trkpt lat="46.21102" lon="6.50252">
        <ele>898.6640625</ele>
        <time>2021-08-22T14:07:23Z</time>
      </trkpt>
      <trkpt lat="46.21138" lon="6.50267">
        <ele>899.46875</ele>
        <time>2021-08-22T14:07:33Z</time>
      </trkpt>
      <trkpt lat="46.21207" lon="6.50276">
        <ele>899.5625</ele>
        <time>2021-08-22T14:07:47Z</time>
      </trkpt>
      <trkpt lat="46.21212" lon="6.50276">
        <ele>899.61328125</ele>
        <time>2021-08-22T14:07:48Z</time>
      </trkpt>
      <trkpt lat="46.21282" lon="6.50287">
        <ele>902.52734375</ele>
        <time>2021-08-22T14:08:03Z</time>
      </trkpt>
      <trkpt lat="46.21344" lon="6.5031">
        <ele>906.26171875</ele>
        <time>2021-08-22T14:08:16Z</time>
      </trkpt>
      <trkpt lat="46.21362" lon="6.50316">
        <ele>906.77734375</ele>
        <time>2021-08-22T14:08:20Z</time>
      </trkpt>
      <trkpt lat="46.21367" lon="6.50316">
        <ele>906.83984375</ele>
        <time>2021-08-22T14:08:21Z</time>
      </trkpt>
      <trkpt lat="46.21381" lon="6.50316">
        <ele>907</ele>
        <time>2021-08-22T14:08:24Z</time>
      </trkpt>
      <trkpt lat="46.21415" lon="6.50323">
        <ele>907.3125</ele>
        <time>2021-08-22T14:08:31Z</time>
      </trkpt>
      <trkpt lat="46.2142" lon="6.50322">
        <ele>907.4765625</ele>
        <time>2021-08-22T14:08:32Z</time>
      </trkpt>
      <trkpt lat="46.21428" lon="6.5032">
        <ele>907.79296875</ele>
        <time>2021-08-22T14:08:34Z</time>
      </trkpt>
      <trkpt lat="46.21452" lon="6.50317">
        <ele>908</ele>
        <time>2021-08-22T14:08:39Z</time>
      </trkpt>
      <trkpt lat="46.21504" lon="6.50325">
        <ele>908.98828125</ele>
        <time>2021-08-22T14:08:50Z</time>
      </trkpt>
      <trkpt lat="46.21533" lon="6.50349">
        <ele>909.46484375</ele>
        <time>2021-08-22T14:09:00Z</time>
      </trkpt>
      <trkpt lat="46.21533" lon="6.50378">
        <ele>910.8046875</ele>
        <time>2021-08-22T14:09:08Z</time>
      </trkpt>
      <trkpt lat="46.2153" lon="6.50395">
        <ele>911.7734375</ele>
        <time>2021-08-22T14:09:34Z</time>
      </trkpt>
      <trkpt lat="46.21529" lon="6.50439">
        <ele>917.69140625</ele>
        <time>2021-08-22T14:09:45Z</time>
      </trkpt>
      <trkpt lat="46.21529" lon="6.50473">
        <ele>925.4921875</ele>
        <time>2021-08-22T14:09:53Z</time>
      </trkpt>
      <trkpt lat="46.21529" lon="6.50477">
        <ele>926.59375</ele>
        <time>2021-08-22T14:09:54Z</time>
      </trkpt>
      <trkpt lat="46.21534" lon="6.50522">
        <ele>939.73828125</ele>
        <time>2021-08-22T14:10:06Z</time>
      </trkpt>
      <trkpt lat="46.21534" lon="6.50525">
        <ele>940.76953125</ele>
        <time>2021-08-22T14:10:07Z</time>
      </trkpt>
      <trkpt lat="46.21534" lon="6.50527">
        <ele>941.3046875</ele>
        <time>2021-08-22T14:10:08Z</time>
      </trkpt>
      <trkpt lat="46.21535" lon="6.50527">
        <ele>941.17578125</ele>
        <time>2021-08-22T14:10:09Z</time>
      </trkpt>
      <trkpt lat="46.21537" lon="6.50525">
        <ele>940.26953125</ele>
        <time>2021-08-22T14:10:10Z</time>
      </trkpt>
      <trkpt lat="46.21539" lon="6.50521">
        <ele>938.375</ele>
        <time>2021-08-22T14:10:23Z</time>
      </trkpt>
      <trkpt lat="46.21539" lon="6.50516">
        <ele>936.77734375</ele>
        <time>2021-08-22T14:10:30Z</time>
      </trkpt>
      <trkpt lat="46.21539" lon="6.50514">
        <ele>936.12109375</ele>
        <time>2021-08-22T14:10:31Z</time>
      </trkpt>
      <trkpt lat="46.21538" lon="6.50503">
        <ele>932.7265625</ele>
        <time>2021-08-22T14:10:43Z</time>
      </trkpt>
      <trkpt lat="46.21537" lon="6.50504">
        <ele>933.38671875</ele>
        <time>2021-08-22T14:11:00Z</time>
      </trkpt>
      <trkpt lat="46.21536" lon="6.50503">
        <ele>932.90234375</ele>
        <time>2021-08-22T14:11:16Z</time>
      </trkpt>
      <trkpt lat="46.21535" lon="6.50501">
        <ele>932.53515625</ele>
        <time>2021-08-22T14:11:28Z</time>
      </trkpt>
      <trkpt lat="46.21534" lon="6.50503">
        <ele>933.26171875</ele>
        <time>2021-08-22T14:11:29Z</time>
      </trkpt>
      <trkpt lat="46.21535" lon="6.50506">
        <ele>934.23828125</ele>
        <time>2021-08-22T14:11:30Z</time>
      </trkpt>
      <trkpt lat="46.21535" lon="6.50509">
        <ele>935.2578125</ele>
        <time>2021-08-22T14:11:31Z</time>
      </trkpt>
      <trkpt lat="46.21535" lon="6.50513">
        <ele>936.3828125</ele>
        <time>2021-08-22T14:11:32Z</time>
      </trkpt>
      <trkpt lat="46.21534" lon="6.50517">
        <ele>937.81640625</ele>
        <time>2021-08-22T14:11:33Z</time>
      </trkpt>
      <trkpt lat="46.21533" lon="6.50521">
        <ele>939.35546875</ele>
        <time>2021-08-22T14:11:34Z</time>
      </trkpt>
      <trkpt lat="46.21531" lon="6.50524">
        <ele>940.91796875</ele>
        <time>2021-08-22T14:11:35Z</time>
      </trkpt>
      <trkpt lat="46.21529" lon="6.50527">
        <ele>942.34765625</ele>
        <time>2021-08-22T14:11:36Z</time>
      </trkpt>
      <trkpt lat="46.21526" lon="6.50528">
        <ele>943.265625</ele>
        <time>2021-08-22T14:11:37Z</time>
      </trkpt>
      <trkpt lat="46.21523" lon="6.50529">
        <ele>944.01171875</ele>
        <time>2021-08-22T14:11:38Z</time>
      </trkpt>
      <trkpt lat="46.21519" lon="6.5053">
        <ele>944.78515625</ele>
        <time>2021-08-22T14:11:39Z</time>
      </trkpt>
      <trkpt lat="46.21511" lon="6.50538">
        <ele>949.33984375</ele>
        <time>2021-08-22T14:11:43Z</time>
      </trkpt>
      <trkpt lat="46.21511" lon="6.50541">
        <ele>950.2890625</ele>
        <time>2021-08-22T14:11:44Z</time>
      </trkpt>
      <trkpt lat="46.2151" lon="6.50544">
        <ele>951.34765625</ele>
        <time>2021-08-22T14:11:45Z</time>
      </trkpt>
      <trkpt lat="46.2151" lon="6.50546">
        <ele>951.921875</ele>
        <time>2021-08-22T14:11:46Z</time>
      </trkpt>
      <trkpt lat="46.21508" lon="6.50554">
        <ele>954.3515625</ele>
        <time>2021-08-22T14:11:48Z</time>
      </trkpt>
      <trkpt lat="46.21507" lon="6.50558">
        <ele>955.51953125</ele>
        <time>2021-08-22T14:11:49Z</time>
      </trkpt>
      <trkpt lat="46.21507" lon="6.50567">
        <ele>957.61328125</ele>
        <time>2021-08-22T14:11:51Z</time>
      </trkpt>
      <trkpt lat="46.21507" lon="6.5057">
        <ele>958.125</ele>
        <time>2021-08-22T14:11:52Z</time>
      </trkpt>
      <trkpt lat="46.21508" lon="6.50572">
        <ele>958.36328125</ele>
        <time>2021-08-22T14:11:53Z</time>
      </trkpt>
      <trkpt lat="46.2151" lon="6.50573">
        <ele>958.35546875</ele>
        <time>2021-08-22T14:11:54Z</time>
      </trkpt>
      <trkpt lat="46.21512" lon="6.50573">
        <ele>958.1015625</ele>
        <time>2021-08-22T14:11:55Z</time>
      </trkpt>
      <trkpt lat="46.21515" lon="6.50573">
        <ele>957.57421875</ele>
        <time>2021-08-22T14:11:56Z</time>
      </trkpt>
      <trkpt lat="46.21523" lon="6.50569">
        <ele>956.16796875</ele>
        <time>2021-08-22T14:12:00Z</time>
      </trkpt>
      <trkpt lat="46.21524" lon="6.50567">
        <ele>955.62890625</ele>
        <time>2021-08-22T14:12:01Z</time>
      </trkpt>
      <trkpt lat="46.21532" lon="6.50555">
        <ele>951.6796875</ele>
        <time>2021-08-22T14:12:08Z</time>
      </trkpt>
      <trkpt lat="46.21532" lon="6.50554">
        <ele>951.3671875</ele>
        <time>2021-08-22T14:12:09Z</time>
      </trkpt>
      <trkpt lat="46.21534" lon="6.50553">
        <ele>950.80859375</ele>
        <time>2021-08-22T14:12:10Z</time>
      </trkpt>
      <trkpt lat="46.21536" lon="6.50552">
        <ele>950.41015625</ele>
        <time>2021-08-22T14:12:11Z</time>
      </trkpt>
      <trkpt lat="46.21538" lon="6.50552">
        <ele>950.1484375</ele>
        <time>2021-08-22T14:12:12Z</time>
      </trkpt>
      <trkpt lat="46.21548" lon="6.50555">
        <ele>951.02734375</ele>
        <time>2021-08-22T14:12:17Z</time>
      </trkpt>
      <trkpt lat="46.21564" lon="6.50558">
        <ele>955.84375</ele>
        <time>2021-08-22T14:12:26Z</time>
      </trkpt>
      <trkpt lat="46.21568" lon="6.50559">
        <ele>956.96875</ele>
        <time>2021-08-22T14:12:28Z</time>
      </trkpt>
      <trkpt lat="46.21571" lon="6.5056">
        <ele>958.22265625</ele>
        <time>2021-08-22T14:12:30Z</time>
      </trkpt>
      <trkpt lat="46.21573" lon="6.50561">
        <ele>959.17578125</ele>
        <time>2021-08-22T14:12:31Z</time>
      </trkpt>
      <trkpt lat="46.21574" lon="6.50563">
        <ele>960.09765625</ele>
        <time>2021-08-22T14:12:32Z</time>
      </trkpt>
      <trkpt lat="46.21576" lon="6.50564">
        <ele>960.9765625</ele>
        <time>2021-08-22T14:12:33Z</time>
      </trkpt>
      <trkpt lat="46.21578" lon="6.50565">
        <ele>961.9140625</ele>
        <time>2021-08-22T14:12:34Z</time>
      </trkpt>
      <trkpt lat="46.21586" lon="6.50571">
        <ele>965.859375</ele>
        <time>2021-08-22T14:12:38Z</time>
      </trkpt>
      <trkpt lat="46.21605" lon="6.50578">
        <ele>971.796875</ele>
        <time>2021-08-22T14:12:45Z</time>
      </trkpt>
      <trkpt lat="46.21621" lon="6.50591">
        <ele>978.04296875</ele>
        <time>2021-08-22T14:12:53Z</time>
      </trkpt>
      <trkpt lat="46.21625" lon="6.50594">
        <ele>979.28515625</ele>
        <time>2021-08-22T14:12:55Z</time>
      </trkpt>
      <trkpt lat="46.21627" lon="6.50595">
        <ele>979.80078125</ele>
        <time>2021-08-22T14:12:56Z</time>
      </trkpt>
      <trkpt lat="46.2163" lon="6.50598">
        <ele>980.7109375</ele>
        <time>2021-08-22T14:12:59Z</time>
      </trkpt>
      <trkpt lat="46.21632" lon="6.50599">
        <ele>981.06640625</ele>
        <time>2021-08-22T14:13:00Z</time>
      </trkpt>
      <trkpt lat="46.21633" lon="6.506">
        <ele>981.55859375</ele>
        <time>2021-08-22T14:13:01Z</time>
      </trkpt>
      <trkpt lat="46.21635" lon="6.50603">
        <ele>982.48046875</ele>
        <time>2021-08-22T14:13:02Z</time>
      </trkpt>
      <trkpt lat="46.21638" lon="6.50606">
        <ele>983.109375</ele>
        <time>2021-08-22T14:13:03Z</time>
      </trkpt>
      <trkpt lat="46.2164" lon="6.50608">
        <ele>983.79296875</ele>
        <time>2021-08-22T14:13:04Z</time>
      </trkpt>
      <trkpt lat="46.21642" lon="6.5061">
        <ele>984.328125</ele>
        <time>2021-08-22T14:13:05Z</time>
      </trkpt>
      <trkpt lat="46.21644" lon="6.50612">
        <ele>984.59765625</ele>
        <time>2021-08-22T14:13:06Z</time>
      </trkpt>
      <trkpt lat="46.21647" lon="6.50614">
        <ele>985.0703125</ele>
        <time>2021-08-22T14:13:07Z</time>
      </trkpt>
      <trkpt lat="46.21655" lon="6.50621">
        <ele>986.796875</ele>
        <time>2021-08-22T14:13:13Z</time>
      </trkpt>
      <trkpt lat="46.21666" lon="6.50637">
        <ele>989.75</ele>
        <time>2021-08-22T14:13:20Z</time>
      </trkpt>
      <trkpt lat="46.2167" lon="6.50642">
        <ele>989.80859375</ele>
        <time>2021-08-22T14:13:21Z</time>
      </trkpt>
      <trkpt lat="46.21681" lon="6.50651">
        <ele>988.77734375</ele>
        <time>2021-08-22T14:13:25Z</time>
      </trkpt>
      <trkpt lat="46.21683" lon="6.50655">
        <ele>988.9765625</ele>
        <time>2021-08-22T14:13:27Z</time>
      </trkpt>
      <trkpt lat="46.21691" lon="6.50669">
        <ele>987.7734375</ele>
        <time>2021-08-22T14:13:33Z</time>
      </trkpt>
      <trkpt lat="46.21692" lon="6.50672">
        <ele>987.9296875</ele>
        <time>2021-08-22T14:13:34Z</time>
      </trkpt>
      <trkpt lat="46.21692" lon="6.50675">
        <ele>988.11328125</ele>
        <time>2021-08-22T14:13:35Z</time>
      </trkpt>
      <trkpt lat="46.21693" lon="6.50678">
        <ele>988.03125</ele>
        <time>2021-08-22T14:13:36Z</time>
      </trkpt>
      <trkpt lat="46.21694" lon="6.5068">
        <ele>988.21484375</ele>
        <time>2021-08-22T14:13:37Z</time>
      </trkpt>
      <trkpt lat="46.21693" lon="6.50683">
        <ele>988.578125</ele>
        <time>2021-08-22T14:13:38Z</time>
      </trkpt>
      <trkpt lat="46.21693" lon="6.50685">
        <ele>988.875</ele>
        <time>2021-08-22T14:13:39Z</time>
      </trkpt>
      <trkpt lat="46.21693" lon="6.50687">
        <ele>989.11328125</ele>
        <time>2021-08-22T14:13:40Z</time>
      </trkpt>
      <trkpt lat="46.21693" lon="6.50689">
        <ele>989.46875</ele>
        <time>2021-08-22T14:13:41Z</time>
      </trkpt>
      <trkpt lat="46.21693" lon="6.50691">
        <ele>989.8828125</ele>
        <time>2021-08-22T14:13:42Z</time>
      </trkpt>
      <trkpt lat="46.21694" lon="6.50694">
        <ele>990.16796875</ele>
        <time>2021-08-22T14:13:43Z</time>
      </trkpt>
      <trkpt lat="46.21695" lon="6.50697">
        <ele>990.3125</ele>
        <time>2021-08-22T14:13:44Z</time>
      </trkpt>
      <trkpt lat="46.2171" lon="6.50728">
        <ele>992.89453125</ele>
        <time>2021-08-22T14:13:54Z</time>
      </trkpt>
      <trkpt lat="46.2173" lon="6.5075">
        <ele>994.41796875</ele>
        <time>2021-08-22T14:14:06Z</time>
      </trkpt>
      <trkpt lat="46.21754" lon="6.50769">
        <ele>995.69140625</ele>
        <time>2021-08-22T14:14:19Z</time>
      </trkpt>
      <trkpt lat="46.21758" lon="6.50779">
        <ele>997.3984375</ele>
        <time>2021-08-22T14:14:23Z</time>
      </trkpt>
      <trkpt lat="46.21744" lon="6.50792">
        <ele>1004.0078125</ele>
        <time>2021-08-22T14:14:33Z</time>
      </trkpt>
      <trkpt lat="46.21726" lon="6.50783">
        <ele>1005.19921875</ele>
        <time>2021-08-22T14:14:43Z</time>
      </trkpt>
      <trkpt lat="46.21724" lon="6.50783">
        <ele>1005.41015625</ele>
        <time>2021-08-22T14:14:45Z</time>
      </trkpt>
      <trkpt lat="46.21723" lon="6.50782">
        <ele>1005.359375</ele>
        <time>2021-08-22T14:14:46Z</time>
      </trkpt>
      <trkpt lat="46.21721" lon="6.5078">
        <ele>1005.30859375</ele>
        <time>2021-08-22T14:14:47Z</time>
      </trkpt>
      <trkpt lat="46.21719" lon="6.50779">
        <ele>1005.28125</ele>
        <time>2021-08-22T14:14:48Z</time>
      </trkpt>
      <trkpt lat="46.21718" lon="6.50778">
        <ele>1005.21875</ele>
        <time>2021-08-22T14:14:49Z</time>
      </trkpt>
      <trkpt lat="46.21717" lon="6.50778">
        <ele>1005.33984375</ele>
        <time>2021-08-22T14:14:50Z</time>
      </trkpt>
      <trkpt lat="46.217" lon="6.50775">
        <ele>1007.484375</ele>
        <time>2021-08-22T14:15:01Z</time>
      </trkpt>
      <trkpt lat="46.21683" lon="6.50774">
        <ele>1010.4375</ele>
        <time>2021-08-22T14:15:14Z</time>
      </trkpt>
      <trkpt lat="46.21666" lon="6.50774">
        <ele>1014.33203125</ele>
        <time>2021-08-22T14:15:23Z</time>
      </trkpt>
      <trkpt lat="46.21642" lon="6.50771">
        <ele>1017.7734375</ele>
        <time>2021-08-22T14:15:33Z</time>
      </trkpt>
      <trkpt lat="46.21616" lon="6.50758">
        <ele>1017.1953125</ele>
        <time>2021-08-22T14:15:48Z</time>
      </trkpt>
      <trkpt lat="46.21595" lon="6.50755">
        <ele>1015.015625</ele>
        <time>2021-08-22T14:16:00Z</time>
      </trkpt>
      <trkpt lat="46.21582" lon="6.50757">
        <ele>1010.76953125</ele>
        <time>2021-08-22T14:16:10Z</time>
      </trkpt>
      <trkpt lat="46.21567" lon="6.50762">
        <ele>1005.140625</ele>
        <time>2021-08-22T14:16:18Z</time>
      </trkpt>
      <trkpt lat="46.21567" lon="6.50765">
        <ele>1004.91015625</ele>
        <time>2021-08-22T14:16:19Z</time>
      </trkpt>
      <trkpt lat="46.21566" lon="6.50767">
        <ele>1004.82421875</ele>
        <time>2021-08-22T14:16:20Z</time>
      </trkpt>
      <trkpt lat="46.21576" lon="6.50802">
        <ele>1008.75390625</ele>
        <time>2021-08-22T14:16:33Z</time>
      </trkpt>
      <trkpt lat="46.21582" lon="6.50825">
        <ele>1009.859375</ele>
        <time>2021-08-22T14:16:43Z</time>
      </trkpt>
      <trkpt lat="46.21583" lon="6.50828">
        <ele>1010.23046875</ele>
        <time>2021-08-22T14:16:44Z</time>
      </trkpt>
      <trkpt lat="46.21586" lon="6.50834">
        <ele>1011.41796875</ele>
        <time>2021-08-22T14:16:47Z</time>
      </trkpt>
      <trkpt lat="46.21586" lon="6.50836">
        <ele>1011.71875</ele>
        <time>2021-08-22T14:16:48Z</time>
      </trkpt>
      <trkpt lat="46.21599" lon="6.50864">
        <ele>1016.94921875</ele>
        <time>2021-08-22T14:17:01Z</time>
      </trkpt>
      <trkpt lat="46.21612" lon="6.50884">
        <ele>1022.0703125</ele>
        <time>2021-08-22T14:17:12Z</time>
      </trkpt>
      <trkpt lat="46.21627" lon="6.50904">
        <ele>1029.31640625</ele>
        <time>2021-08-22T14:17:24Z</time>
      </trkpt>
      <trkpt lat="46.2163" lon="6.50907">
        <ele>1030.3671875</ele>
        <time>2021-08-22T14:17:26Z</time>
      </trkpt>
      <trkpt lat="46.21647" lon="6.50914">
        <ele>1035.5078125</ele>
        <time>2021-08-22T14:17:37Z</time>
      </trkpt>
      <trkpt lat="46.2166" lon="6.50926">
        <ele>1039.78125</ele>
        <time>2021-08-22T14:17:46Z</time>
      </trkpt>
      <trkpt lat="46.2166" lon="6.50928">
        <ele>1040.015625</ele>
        <time>2021-08-22T14:17:47Z</time>
      </trkpt>
      <trkpt lat="46.21658" lon="6.50946">
        <ele>1040.56640625</ele>
        <time>2021-08-22T14:17:54Z</time>
      </trkpt>
      <trkpt lat="46.21657" lon="6.50972">
        <ele>1041.41015625</ele>
        <time>2021-08-22T14:18:05Z</time>
      </trkpt>
      <trkpt lat="46.21668" lon="6.51002">
        <ele>1045.4375</ele>
        <time>2021-08-22T14:18:17Z</time>
      </trkpt>
      <trkpt lat="46.21703" lon="6.51021">
        <ele>1052.09375</ele>
        <time>2021-08-22T14:18:30Z</time>
      </trkpt>
      <trkpt lat="46.21726" lon="6.51025">
        <ele>1055.30859375</ele>
        <time>2021-08-22T14:18:42Z</time>
      </trkpt>
      <trkpt lat="46.21744" lon="6.51031">
        <ele>1057.88671875</ele>
        <time>2021-08-22T14:18:51Z</time>
      </trkpt>
      <trkpt lat="46.21765" lon="6.51042">
        <ele>1060.96484375</ele>
        <time>2021-08-22T14:19:05Z</time>
      </trkpt>
      <trkpt lat="46.21764" lon="6.51038">
        <ele>1060.328125</ele>
        <time>2021-08-22T14:19:28Z</time>
      </trkpt>
      <trkpt lat="46.21768" lon="6.5104">
        <ele>1060.8515625</ele>
        <time>2021-08-22T14:19:53Z</time>
      </trkpt>
      <trkpt lat="46.21773" lon="6.5104">
        <ele>1061.1953125</ele>
        <time>2021-08-22T14:20:05Z</time>
      </trkpt>
      <trkpt lat="46.21774" lon="6.51037">
        <ele>1060.97265625</ele>
        <time>2021-08-22T14:20:16Z</time>
      </trkpt>
      <trkpt lat="46.21776" lon="6.51037">
        <ele>1061.0625</ele>
        <time>2021-08-22T14:20:17Z</time>
      </trkpt>
      <trkpt lat="46.21778" lon="6.51037">
        <ele>1061.1796875</ele>
        <time>2021-08-22T14:20:18Z</time>
      </trkpt>
      <trkpt lat="46.21793" lon="6.51041">
        <ele>1062.81640625</ele>
        <time>2021-08-22T14:20:28Z</time>
      </trkpt>
      <trkpt lat="46.21793" lon="6.51037">
        <ele>1062.32421875</ele>
        <time>2021-08-22T14:20:53Z</time>
      </trkpt>
      <trkpt lat="46.21792" lon="6.51035">
        <ele>1061.9453125</ele>
        <time>2021-08-22T14:21:11Z</time>
      </trkpt>
      <trkpt lat="46.21791" lon="6.51031">
        <ele>1061.203125</ele>
        <time>2021-08-22T14:21:36Z</time>
      </trkpt>
      <trkpt lat="46.21794" lon="6.51032">
        <ele>1061.703125</ele>
        <time>2021-08-22T14:22:02Z</time>
      </trkpt>
      <trkpt lat="46.21792" lon="6.51032">
        <ele>1061.48828125</ele>
        <time>2021-08-22T14:22:05Z</time>
      </trkpt>
      <trkpt lat="46.21791" lon="6.51031">
        <ele>1061.3203125</ele>
        <time>2021-08-22T14:22:06Z</time>
      </trkpt>
      <trkpt lat="46.21771" lon="6.5104">
        <ele>1061.15625</ele>
        <time>2021-08-22T14:22:15Z</time>
      </trkpt>
      <trkpt lat="46.21766" lon="6.5104">
        <ele>1060.74609375</ele>
        <time>2021-08-22T14:22:28Z</time>
      </trkpt>
      <trkpt lat="46.21765" lon="6.51039">
        <ele>1060.5234375</ele>
        <time>2021-08-22T14:22:29Z</time>
      </trkpt>
      <trkpt lat="46.21763" lon="6.51038">
        <ele>1060.36328125</ele>
        <time>2021-08-22T14:22:30Z</time>
      </trkpt>
      <trkpt lat="46.21762" lon="6.51038">
        <ele>1060.20703125</ele>
        <time>2021-08-22T14:22:31Z</time>
      </trkpt>
      <trkpt lat="46.2176" lon="6.51038">
        <ele>1060.0078125</ele>
        <time>2021-08-22T14:22:32Z</time>
      </trkpt>
      <trkpt lat="46.21758" lon="6.51037">
        <ele>1059.75</ele>
        <time>2021-08-22T14:22:33Z</time>
      </trkpt>
      <trkpt lat="46.21756" lon="6.51037">
        <ele>1059.6640625</ele>
        <time>2021-08-22T14:22:34Z</time>
      </trkpt>
      <trkpt lat="46.21755" lon="6.51039">
        <ele>1059.83203125</ele>
        <time>2021-08-22T14:22:35Z</time>
      </trkpt>
      <trkpt lat="46.21754" lon="6.51042">
        <ele>1060.1875</ele>
        <time>2021-08-22T14:22:36Z</time>
      </trkpt>
      <trkpt lat="46.21754" lon="6.51045">
        <ele>1060.6015625</ele>
        <time>2021-08-22T14:22:37Z</time>
      </trkpt>
      <trkpt lat="46.21755" lon="6.51047">
        <ele>1061</ele>
        <time>2021-08-22T14:22:38Z</time>
      </trkpt>
      <trkpt lat="46.21755" lon="6.5105">
        <ele>1061.41015625</ele>
        <time>2021-08-22T14:22:39Z</time>
      </trkpt>
      <trkpt lat="46.21755" lon="6.51053">
        <ele>1061.8125</ele>
        <time>2021-08-22T14:22:40Z</time>
      </trkpt>
      <trkpt lat="46.21756" lon="6.51055">
        <ele>1062.28125</ele>
        <time>2021-08-22T14:22:41Z</time>
      </trkpt>
      <trkpt lat="46.21761" lon="6.51066">
        <ele>1064.1171875</ele>
        <time>2021-08-22T14:22:52Z</time>
      </trkpt>
      <trkpt lat="46.21762" lon="6.51072">
        <ele>1065.11328125</ele>
        <time>2021-08-22T14:23:08Z</time>
      </trkpt>
      <trkpt lat="46.21765" lon="6.51075">
        <ele>1065.7890625</ele>
        <time>2021-08-22T14:23:25Z</time>
      </trkpt>
      <trkpt lat="46.21767" lon="6.51075">
        <ele>1065.8984375</ele>
        <time>2021-08-22T14:23:38Z</time>
      </trkpt>
      <trkpt lat="46.2177" lon="6.51095">
        <ele>1069.73046875</ele>
        <time>2021-08-22T14:23:50Z</time>
      </trkpt>
      <trkpt lat="46.2177" lon="6.51097">
        <ele>1070.1015625</ele>
        <time>2021-08-22T14:23:51Z</time>
      </trkpt>
      <trkpt lat="46.21771" lon="6.51101">
        <ele>1070.80078125</ele>
        <time>2021-08-22T14:23:53Z</time>
      </trkpt>
      <trkpt lat="46.21771" lon="6.51103">
        <ele>1071.25390625</ele>
        <time>2021-08-22T14:23:54Z</time>
      </trkpt>
      <trkpt lat="46.21771" lon="6.51105">
        <ele>1071.84765625</ele>
        <time>2021-08-22T14:23:55Z</time>
      </trkpt>
      <trkpt lat="46.21772" lon="6.51108">
        <ele>1072.46484375</ele>
        <time>2021-08-22T14:23:56Z</time>
      </trkpt>
      <trkpt lat="46.21772" lon="6.51111">
        <ele>1073.17578125</ele>
        <time>2021-08-22T14:23:57Z</time>
      </trkpt>
      <trkpt lat="46.21772" lon="6.51113">
        <ele>1073.80078125</ele>
        <time>2021-08-22T14:23:58Z</time>
      </trkpt>
      <trkpt lat="46.21772" lon="6.51116">
        <ele>1074.44921875</ele>
        <time>2021-08-22T14:23:59Z</time>
      </trkpt>
      <trkpt lat="46.21773" lon="6.51118">
        <ele>1075.14453125</ele>
        <time>2021-08-22T14:24:00Z</time>
      </trkpt>
      <trkpt lat="46.21774" lon="6.5112">
        <ele>1075.734375</ele>
        <time>2021-08-22T14:24:01Z</time>
      </trkpt>
      <trkpt lat="46.21774" lon="6.51123">
        <ele>1076.3671875</ele>
        <time>2021-08-22T14:24:02Z</time>
      </trkpt>
      <trkpt lat="46.21775" lon="6.51124">
        <ele>1076.76953125</ele>
        <time>2021-08-22T14:24:03Z</time>
      </trkpt>
      <trkpt lat="46.21777" lon="6.51131">
        <ele>1078.65234375</ele>
        <time>2021-08-22T14:24:17Z</time>
      </trkpt>
      <trkpt lat="46.21782" lon="6.51146">
        <ele>1083.80859375</ele>
        <time>2021-08-22T14:24:29Z</time>
      </trkpt>
      <trkpt lat="46.21782" lon="6.51156">
        <ele>1087.01953125</ele>
        <time>2021-08-22T14:24:42Z</time>
      </trkpt>
      <trkpt lat="46.21779" lon="6.51163">
        <ele>1088.87109375</ele>
        <time>2021-08-22T14:25:08Z</time>
      </trkpt>
      <trkpt lat="46.21777" lon="6.51163">
        <ele>1088.71484375</ele>
        <time>2021-08-22T14:25:21Z</time>
      </trkpt>
      <trkpt lat="46.2177" lon="6.51165">
        <ele>1088.48046875</ele>
        <time>2021-08-22T14:25:35Z</time>
      </trkpt>
      <trkpt lat="46.21771" lon="6.51165">
        <ele>1088.38671875</ele>
        <time>2021-08-22T14:25:51Z</time>
      </trkpt>
      <trkpt lat="46.21767" lon="6.5117">
        <ele>1089.66015625</ele>
        <time>2021-08-22T14:26:09Z</time>
      </trkpt>
      <trkpt lat="46.21764" lon="6.51176">
        <ele>1090.9453125</ele>
        <time>2021-08-22T14:26:25Z</time>
      </trkpt>
      <trkpt lat="46.21762" lon="6.51183">
        <ele>1092.984375</ele>
        <time>2021-08-22T14:26:40Z</time>
      </trkpt>
      <trkpt lat="46.2176" lon="6.51185">
        <ele>1092.99609375</ele>
        <time>2021-08-22T14:27:00Z</time>
      </trkpt>
      <trkpt lat="46.21758" lon="6.51192">
        <ele>1095.08984375</ele>
        <time>2021-08-22T14:27:16Z</time>
      </trkpt>
      <trkpt lat="46.21755" lon="6.51199">
        <ele>1096.66796875</ele>
        <time>2021-08-22T14:27:25Z</time>
      </trkpt>
      <trkpt lat="46.21754" lon="6.51199">
        <ele>1096.67578125</ele>
        <time>2021-08-22T14:27:26Z</time>
      </trkpt>
      <trkpt lat="46.2175" lon="6.51204">
        <ele>1097.55859375</ele>
        <time>2021-08-22T14:27:39Z</time>
      </trkpt>
      <trkpt lat="46.2175" lon="6.51207">
        <ele>1098.55859375</ele>
        <time>2021-08-22T14:28:03Z</time>
      </trkpt>
      <trkpt lat="46.21751" lon="6.51205">
        <ele>1098.09375</ele>
        <time>2021-08-22T14:28:39Z</time>
      </trkpt>
      <trkpt lat="46.21754" lon="6.51202">
        <ele>1097.7109375</ele>
        <time>2021-08-22T14:29:11Z</time>
      </trkpt>
      <trkpt lat="46.21748" lon="6.51198">
        <ele>1095.03515625</ele>
        <time>2021-08-22T14:29:44Z</time>
      </trkpt>
      <trkpt lat="46.21748" lon="6.51212">
        <ele>1099.76171875</ele>
        <time>2021-08-22T14:29:58Z</time>
      </trkpt>
      <trkpt lat="46.21749" lon="6.51218">
        <ele>1101.6328125</ele>
        <time>2021-08-22T14:30:11Z</time>
      </trkpt>
      <trkpt lat="46.21747" lon="6.51223">
        <ele>1102.8671875</ele>
        <time>2021-08-22T14:30:29Z</time>
      </trkpt>
      <trkpt lat="46.21743" lon="6.51226">
        <ele>1103.015625</ele>
        <time>2021-08-22T14:30:47Z</time>
      </trkpt>
      <trkpt lat="46.21744" lon="6.51241">
        <ele>1107.55078125</ele>
        <time>2021-08-22T14:31:00Z</time>
      </trkpt>
      <trkpt lat="46.21747" lon="6.51242">
        <ele>1108.53125</ele>
        <time>2021-08-22T14:31:21Z</time>
      </trkpt>
      <trkpt lat="46.21747" lon="6.51241">
        <ele>1108.3203125</ele>
        <time>2021-08-22T14:31:41Z</time>
      </trkpt>
      <trkpt lat="46.21752" lon="6.51244">
        <ele>1110.24609375</ele>
        <time>2021-08-22T14:31:55Z</time>
      </trkpt>
      <trkpt lat="46.21757" lon="6.51248">
        <ele>1112.59375</ele>
        <time>2021-08-22T14:32:06Z</time>
      </trkpt>
      <trkpt lat="46.21759" lon="6.51248">
        <ele>1112.8359375</ele>
        <time>2021-08-22T14:32:25Z</time>
      </trkpt>
      <trkpt lat="46.21758" lon="6.51257">
        <ele>1115.3125</ele>
        <time>2021-08-22T14:32:44Z</time>
      </trkpt>
      <trkpt lat="46.21756" lon="6.51266">
        <ele>1117.62109375</ele>
        <time>2021-08-22T14:32:54Z</time>
      </trkpt>
      <trkpt lat="46.21752" lon="6.51272">
        <ele>1118.39453125</ele>
        <time>2021-08-22T14:33:11Z</time>
      </trkpt>
      <trkpt lat="46.21749" lon="6.51282">
        <ele>1121.01171875</ele>
        <time>2021-08-22T14:33:30Z</time>
      </trkpt>
      <trkpt lat="46.21741" lon="6.51291">
        <ele>1122.34765625</ele>
        <time>2021-08-22T14:33:38Z</time>
      </trkpt>
      <trkpt lat="46.2174" lon="6.51294">
        <ele>1122.97265625</ele>
        <time>2021-08-22T14:33:40Z</time>
      </trkpt>
      <trkpt lat="46.21735" lon="6.5131">
        <ele>1124.5390625</ele>
        <time>2021-08-22T14:33:49Z</time>
      </trkpt>
      <trkpt lat="46.21734" lon="6.51322">
        <ele>1127.1328125</ele>
        <time>2021-08-22T14:34:03Z</time>
      </trkpt>
      <trkpt lat="46.21737" lon="6.5133">
        <ele>1129.56640625</ele>
        <time>2021-08-22T14:34:30Z</time>
      </trkpt>
      <trkpt lat="46.21735" lon="6.5133">
        <ele>1129.046875</ele>
        <time>2021-08-22T14:34:51Z</time>
      </trkpt>
      <trkpt lat="46.21738" lon="6.51335">
        <ele>1131.0859375</ele>
        <time>2021-08-22T14:35:07Z</time>
      </trkpt>
      <trkpt lat="46.21743" lon="6.5134">
        <ele>1133.6484375</ele>
        <time>2021-08-22T14:35:25Z</time>
      </trkpt>
      <trkpt lat="46.21744" lon="6.51348">
        <ele>1135.6328125</ele>
        <time>2021-08-22T14:35:45Z</time>
      </trkpt>
      <trkpt lat="46.21744" lon="6.51356">
        <ele>1137.23828125</ele>
        <time>2021-08-22T14:36:02Z</time>
      </trkpt>
      <trkpt lat="46.21746" lon="6.51364">
        <ele>1139.9765625</ele>
        <time>2021-08-22T14:36:18Z</time>
      </trkpt>
      <trkpt lat="46.21744" lon="6.5137">
        <ele>1140.8828125</ele>
        <time>2021-08-22T14:36:40Z</time>
      </trkpt>
      <trkpt lat="46.21749" lon="6.51377">
        <ele>1144.4375</ele>
        <time>2021-08-22T14:36:52Z</time>
      </trkpt>
      <trkpt lat="46.2175" lon="6.51384">
        <ele>1146.64453125</ele>
        <time>2021-08-22T14:37:05Z</time>
      </trkpt>
      <trkpt lat="46.21751" lon="6.51387">
        <ele>1147.578125</ele>
        <time>2021-08-22T14:37:23Z</time>
      </trkpt>
      <trkpt lat="46.21754" lon="6.51397">
        <ele>1151.29296875</ele>
        <time>2021-08-22T14:37:39Z</time>
      </trkpt>
      <trkpt lat="46.21754" lon="6.51403">
        <ele>1153.36328125</ele>
        <time>2021-08-22T14:37:56Z</time>
      </trkpt>
      <trkpt lat="46.21758" lon="6.51407">
        <ele>1155.8828125</ele>
        <time>2021-08-22T14:38:10Z</time>
      </trkpt>
      <trkpt lat="46.21757" lon="6.51409">
        <ele>1155.86328125</ele>
        <time>2021-08-22T14:38:28Z</time>
      </trkpt>
      <trkpt lat="46.21759" lon="6.51417">
        <ele>1158.96484375</ele>
        <time>2021-08-22T14:38:47Z</time>
      </trkpt>
      <trkpt lat="46.21743" lon="6.51418">
        <ele>1153.08984375</ele>
        <time>2021-08-22T14:39:20Z</time>
      </trkpt>
      <trkpt lat="46.21753" lon="6.51422">
        <ele>1158.09765625</ele>
        <time>2021-08-22T14:39:43Z</time>
      </trkpt>
      <trkpt lat="46.21755" lon="6.51436">
        <ele>1162.90234375</ele>
        <time>2021-08-22T14:40:02Z</time>
      </trkpt>
      <trkpt lat="46.21755" lon="6.51441">
        <ele>1164.43359375</ele>
        <time>2021-08-22T14:40:24Z</time>
      </trkpt>
      <trkpt lat="46.21752" lon="6.51451">
        <ele>1166.11328125</ele>
        <time>2021-08-22T14:40:38Z</time>
      </trkpt>
      <trkpt lat="46.21752" lon="6.51451">
        <ele>1166.19140625</ele>
        <time>2021-08-22T14:40:58Z</time>
      </trkpt>
      <trkpt lat="46.21753" lon="6.51455">
        <ele>1167.78515625</ele>
        <time>2021-08-22T14:41:17Z</time>
      </trkpt>
      <trkpt lat="46.21754" lon="6.51467">
        <ele>1171.47265625</ele>
        <time>2021-08-22T14:41:34Z</time>
      </trkpt>
      <trkpt lat="46.21756" lon="6.51472">
        <ele>1173.66015625</ele>
        <time>2021-08-22T14:41:54Z</time>
      </trkpt>
      <trkpt lat="46.21757" lon="6.51476">
        <ele>1175.01953125</ele>
        <time>2021-08-22T14:42:09Z</time>
      </trkpt>
      <trkpt lat="46.21757" lon="6.51481">
        <ele>1176.65234375</ele>
        <time>2021-08-22T14:42:32Z</time>
      </trkpt>
      <trkpt lat="46.21754" lon="6.51484">
        <ele>1176.51953125</ele>
        <time>2021-08-22T14:42:50Z</time>
      </trkpt>
      <trkpt lat="46.21755" lon="6.51489">
        <ele>1178.25</ele>
        <time>2021-08-22T14:43:06Z</time>
      </trkpt>
      <trkpt lat="46.21754" lon="6.51492">
        <ele>1178.62890625</ele>
        <time>2021-08-22T14:43:23Z</time>
      </trkpt>
      <trkpt lat="46.21754" lon="6.51497">
        <ele>1180.2734375</ele>
        <time>2021-08-22T14:43:41Z</time>
      </trkpt>
      <trkpt lat="46.21753" lon="6.51501">
        <ele>1181</ele>
        <time>2021-08-22T14:43:54Z</time>
      </trkpt>
      <trkpt lat="46.21749" lon="6.51503">
        <ele>1180.2109375</ele>
        <time>2021-08-22T14:44:12Z</time>
      </trkpt>
      <trkpt lat="46.21747" lon="6.51508">
        <ele>1180.91015625</ele>
        <time>2021-08-22T14:44:32Z</time>
      </trkpt>
      <trkpt lat="46.21747" lon="6.51514">
        <ele>1182.515625</ele>
        <time>2021-08-22T14:44:51Z</time>
      </trkpt>
      <trkpt lat="46.21748" lon="6.51518">
        <ele>1183.84375</ele>
        <time>2021-08-22T14:45:09Z</time>
      </trkpt>
      <trkpt lat="46.21741" lon="6.51522">
        <ele>1182.32421875</ele>
        <time>2021-08-22T14:45:32Z</time>
      </trkpt>
      <trkpt lat="46.2174" lon="6.51524">
        <ele>1182.25390625</ele>
        <time>2021-08-22T14:45:48Z</time>
      </trkpt>
      <trkpt lat="46.21737" lon="6.5153">
        <ele>1183.54296875</ele>
        <time>2021-08-22T14:46:10Z</time>
      </trkpt>
      <trkpt lat="46.21737" lon="6.51532">
        <ele>1184.46484375</ele>
        <time>2021-08-22T14:46:25Z</time>
      </trkpt>
      <trkpt lat="46.2174" lon="6.51544">
        <ele>1189.08203125</ele>
        <time>2021-08-22T14:46:38Z</time>
      </trkpt>
      <trkpt lat="46.21739" lon="6.51553">
        <ele>1191.7890625</ele>
        <time>2021-08-22T14:47:01Z</time>
      </trkpt>
      <trkpt lat="46.21739" lon="6.5156">
        <ele>1193.9296875</ele>
        <time>2021-08-22T14:47:16Z</time>
      </trkpt>
      <trkpt lat="46.21739" lon="6.51565">
        <ele>1195.6953125</ele>
        <time>2021-08-22T14:47:19Z</time>
      </trkpt>
      <trkpt lat="46.21737" lon="6.51581">
        <ele>1200.6484375</ele>
        <time>2021-08-22T14:47:27Z</time>
      </trkpt>
      <trkpt lat="46.21736" lon="6.51584">
        <ele>1201.7109375</ele>
        <time>2021-08-22T14:47:29Z</time>
      </trkpt>
      <trkpt lat="46.21728" lon="6.51596">
        <ele>1204.8359375</ele>
        <time>2021-08-22T14:47:47Z</time>
      </trkpt>
      <trkpt lat="46.21724" lon="6.51604">
        <ele>1207.68359375</ele>
        <time>2021-08-22T14:48:06Z</time>
      </trkpt>
      <trkpt lat="46.21723" lon="6.51607">
        <ele>1209.03125</ele>
        <time>2021-08-22T14:48:23Z</time>
      </trkpt>
      <trkpt lat="46.21718" lon="6.51614">
        <ele>1211.26953125</ele>
        <time>2021-08-22T14:48:38Z</time>
      </trkpt>
      <trkpt lat="46.21714" lon="6.51617">
        <ele>1212.40234375</ele>
        <time>2021-08-22T14:48:59Z</time>
      </trkpt>
      <trkpt lat="46.21717" lon="6.51628">
        <ele>1217.28125</ele>
        <time>2021-08-22T14:49:10Z</time>
      </trkpt>
      <trkpt lat="46.21717" lon="6.51627">
        <ele>1216.95703125</ele>
        <time>2021-08-22T14:49:25Z</time>
      </trkpt>
      <trkpt lat="46.21719" lon="6.51611">
        <ele>1210.265625</ele>
        <time>2021-08-22T14:49:38Z</time>
      </trkpt>
      <trkpt lat="46.21723" lon="6.51607">
        <ele>1208.73046875</ele>
        <time>2021-08-22T14:49:49Z</time>
      </trkpt>
      <trkpt lat="46.21727" lon="6.51608">
        <ele>1209.8046875</ele>
        <time>2021-08-22T14:50:01Z</time>
      </trkpt>
      <trkpt lat="46.21731" lon="6.51606">
        <ele>1209.3671875</ele>
        <time>2021-08-22T14:50:15Z</time>
      </trkpt>
      <trkpt lat="46.21736" lon="6.51607">
        <ele>1210.18359375</ele>
        <time>2021-08-22T14:50:32Z</time>
      </trkpt>
      <trkpt lat="46.21738" lon="6.51608">
        <ele>1211.0078125</ele>
        <time>2021-08-22T14:50:47Z</time>
      </trkpt>
      <trkpt lat="46.21737" lon="6.51611">
        <ele>1212</ele>
        <time>2021-08-22T14:51:15Z</time>
      </trkpt>
      <trkpt lat="46.21735" lon="6.51621">
        <ele>1215.8515625</ele>
        <time>2021-08-22T14:51:35Z</time>
      </trkpt>
      <trkpt lat="46.21735" lon="6.51622">
        <ele>1216.140625</ele>
        <time>2021-08-22T14:51:48Z</time>
      </trkpt>
      <trkpt lat="46.21733" lon="6.51625">
        <ele>1217.3515625</ele>
        <time>2021-08-22T14:52:02Z</time>
      </trkpt>
      <trkpt lat="46.21734" lon="6.51628">
        <ele>1218.33984375</ele>
        <time>2021-08-22T14:52:26Z</time>
      </trkpt>
      <trkpt lat="46.21735" lon="6.51623">
        <ele>1216.48828125</ele>
        <time>2021-08-22T14:53:00Z</time>
      </trkpt>
      <trkpt lat="46.21736" lon="6.5162">
        <ele>1215.40234375</ele>
        <time>2021-08-22T14:53:37Z</time>
      </trkpt>
      <trkpt lat="46.21736" lon="6.51616">
        <ele>1213.86328125</ele>
        <time>2021-08-22T14:54:08Z</time>
      </trkpt>
      <trkpt lat="46.21727" lon="6.51618">
        <ele>1213.73046875</ele>
        <time>2021-08-22T14:54:35Z</time>
      </trkpt>
      <trkpt lat="46.21725" lon="6.51621">
        <ele>1214.953125</ele>
        <time>2021-08-22T14:55:09Z</time>
      </trkpt>
      <trkpt lat="46.21726" lon="6.51617">
        <ele>1213.13671875</ele>
        <time>2021-08-22T14:55:32Z</time>
      </trkpt>
      <trkpt lat="46.21729" lon="6.51616">
        <ele>1213.0859375</ele>
        <time>2021-08-22T14:56:17Z</time>
      </trkpt>
      <trkpt lat="46.21727" lon="6.51611">
        <ele>1210.9765625</ele>
        <time>2021-08-22T14:56:47Z</time>
      </trkpt>
      <trkpt lat="46.21732" lon="6.51618">
        <ele>1214.44921875</ele>
        <time>2021-08-22T14:57:20Z</time>
      </trkpt>
      <trkpt lat="46.21732" lon="6.51626">
        <ele>1217.46484375</ele>
        <time>2021-08-22T14:57:38Z</time>
      </trkpt>
      <trkpt lat="46.21734" lon="6.51627">
        <ele>1218.23046875</ele>
        <time>2021-08-22T14:57:53Z</time>
      </trkpt>
      <trkpt lat="46.21733" lon="6.51633">
        <ele>1220.421875</ele>
        <time>2021-08-22T14:58:07Z</time>
      </trkpt>
      <trkpt lat="46.21732" lon="6.51643">
        <ele>1224.1640625</ele>
        <time>2021-08-22T14:58:19Z</time>
      </trkpt>
      <trkpt lat="46.21733" lon="6.51649">
        <ele>1226.6640625</ele>
        <time>2021-08-22T14:58:45Z</time>
      </trkpt>
      <trkpt lat="46.2173" lon="6.51654">
        <ele>1228.71484375</ele>
        <time>2021-08-22T14:58:51Z</time>
      </trkpt>
      <trkpt lat="46.21726" lon="6.51662">
        <ele>1231.453125</ele>
        <time>2021-08-22T14:58:56Z</time>
      </trkpt>
      <trkpt lat="46.21726" lon="6.51666">
        <ele>1233.125</ele>
        <time>2021-08-22T14:59:14Z</time>
      </trkpt>
      <trkpt lat="46.21723" lon="6.51677">
        <ele>1237.2265625</ele>
        <time>2021-08-22T14:59:29Z</time>
      </trkpt>
      <trkpt lat="46.21723" lon="6.51683">
        <ele>1239.77734375</ele>
        <time>2021-08-22T14:59:49Z</time>
      </trkpt>
      <trkpt lat="46.21722" lon="6.51688">
        <ele>1241.68359375</ele>
        <time>2021-08-22T15:00:05Z</time>
      </trkpt>
      <trkpt lat="46.21717" lon="6.51697">
        <ele>1244.8125</ele>
        <time>2021-08-22T15:00:24Z</time>
      </trkpt>
      <trkpt lat="46.21716" lon="6.51703">
        <ele>1247.12109375</ele>
        <time>2021-08-22T15:00:46Z</time>
      </trkpt>
      <trkpt lat="46.21714" lon="6.51707">
        <ele>1248.55078125</ele>
        <time>2021-08-22T15:01:01Z</time>
      </trkpt>
      <trkpt lat="46.21711" lon="6.51708">
        <ele>1248.94140625</ele>
        <time>2021-08-22T15:01:18Z</time>
      </trkpt>
      <trkpt lat="46.21707" lon="6.51708">
        <ele>1249.23046875</ele>
        <time>2021-08-22T15:01:32Z</time>
      </trkpt>
      <trkpt lat="46.21705" lon="6.51708">
        <ele>1249.1328125</ele>
        <time>2021-08-22T15:01:47Z</time>
      </trkpt>
      <trkpt lat="46.21703" lon="6.51714">
        <ele>1251.48828125</ele>
        <time>2021-08-22T15:02:02Z</time>
      </trkpt>
      <trkpt lat="46.21699" lon="6.51722">
        <ele>1255.546875</ele>
        <time>2021-08-22T15:02:17Z</time>
      </trkpt>
      <trkpt lat="46.21689" lon="6.51729">
        <ele>1259.15234375</ele>
        <time>2021-08-22T15:02:25Z</time>
      </trkpt>
      <trkpt lat="46.21687" lon="6.5173">
        <ele>1259.88671875</ele>
        <time>2021-08-22T15:02:28Z</time>
      </trkpt>
      <trkpt lat="46.21678" lon="6.51733">
        <ele>1261.5234375</ele>
        <time>2021-08-22T15:02:33Z</time>
      </trkpt>
      <trkpt lat="46.21673" lon="6.51734">
        <ele>1262.3828125</ele>
        <time>2021-08-22T15:02:38Z</time>
      </trkpt>
      <trkpt lat="46.21664" lon="6.51736">
        <ele>1263.73046875</ele>
        <time>2021-08-22T15:02:55Z</time>
      </trkpt>
      <trkpt lat="46.21654" lon="6.51734">
        <ele>1263.5625</ele>
        <time>2021-08-22T15:03:03Z</time>
      </trkpt>
      <trkpt lat="46.21645" lon="6.51737">
        <ele>1265.86328125</ele>
        <time>2021-08-22T15:03:10Z</time>
      </trkpt>
      <trkpt lat="46.21642" lon="6.51737">
        <ele>1265.71875</ele>
        <time>2021-08-22T15:03:12Z</time>
      </trkpt>
      <trkpt lat="46.2163" lon="6.51739">
        <ele>1267.734375</ele>
        <time>2021-08-22T15:03:21Z</time>
      </trkpt>
      <trkpt lat="46.21622" lon="6.51746">
        <ele>1271.2734375</ele>
        <time>2021-08-22T15:03:28Z</time>
      </trkpt>
      <trkpt lat="46.21606" lon="6.51752">
        <ele>1274.46875</ele>
        <time>2021-08-22T15:03:37Z</time>
      </trkpt>
      <trkpt lat="46.21589" lon="6.51764">
        <ele>1280.1484375</ele>
        <time>2021-08-22T15:03:44Z</time>
      </trkpt>
      <trkpt lat="46.21587" lon="6.51766">
        <ele>1280.9140625</ele>
        <time>2021-08-22T15:03:45Z</time>
      </trkpt>
      <trkpt lat="46.21576" lon="6.51777">
        <ele>1284.859375</ele>
        <time>2021-08-22T15:03:51Z</time>
      </trkpt>
      <trkpt lat="46.21574" lon="6.51777">
        <ele>1284.8671875</ele>
        <time>2021-08-22T15:03:52Z</time>
      </trkpt>
      <trkpt lat="46.21532" lon="6.51785">
        <ele>1287.19140625</ele>
        <time>2021-08-22T15:04:05Z</time>
      </trkpt>
      <trkpt lat="46.2152" lon="6.51786">
        <ele>1286.90234375</ele>
        <time>2021-08-22T15:04:11Z</time>
      </trkpt>
      <trkpt lat="46.21503" lon="6.51791">
        <ele>1287.7734375</ele>
        <time>2021-08-22T15:04:20Z</time>
      </trkpt>
      <trkpt lat="46.2149" lon="6.51799">
        <ele>1289.6328125</ele>
        <time>2021-08-22T15:04:28Z</time>
      </trkpt>
      <trkpt lat="46.21486" lon="6.51811">
        <ele>1292.5</ele>
        <time>2021-08-22T15:04:34Z</time>
      </trkpt>
      <trkpt lat="46.2148" lon="6.51819">
        <ele>1293.91796875</ele>
        <time>2021-08-22T15:04:47Z</time>
      </trkpt>
      <trkpt lat="46.21476" lon="6.51821">
        <ele>1293.94921875</ele>
        <time>2021-08-22T15:05:17Z</time>
      </trkpt>
      <trkpt lat="46.21473" lon="6.51818">
        <ele>1292.7265625</ele>
        <time>2021-08-22T15:05:39Z</time>
      </trkpt>
      <trkpt lat="46.21478" lon="6.51819">
        <ele>1293.65234375</ele>
        <time>2021-08-22T15:05:54Z</time>
      </trkpt>
      <trkpt lat="46.21477" lon="6.51817">
        <ele>1293</ele>
        <time>2021-08-22T15:06:27Z</time>
      </trkpt>
      <trkpt lat="46.21476" lon="6.51817">
        <ele>1292.84375</ele>
        <time>2021-08-22T15:06:43Z</time>
      </trkpt>
      <trkpt lat="46.21479" lon="6.51818">
        <ele>1293.54296875</ele>
        <time>2021-08-22T15:06:59Z</time>
      </trkpt>
      <trkpt lat="46.2148" lon="6.51817">
        <ele>1293.53125</ele>
        <time>2021-08-22T15:07:22Z</time>
      </trkpt>
      <trkpt lat="46.21481" lon="6.51816">
        <ele>1293.30078125</ele>
        <time>2021-08-22T15:07:29Z</time>
      </trkpt>
      <trkpt lat="46.21486" lon="6.51814">
        <ele>1293.265625</ele>
        <time>2021-08-22T15:07:34Z</time>
      </trkpt>
      <trkpt lat="46.21488" lon="6.51813">
        <ele>1293.28125</ele>
        <time>2021-08-22T15:07:35Z</time>
      </trkpt>
      <trkpt lat="46.2149" lon="6.51812">
        <ele>1293.2578125</ele>
        <time>2021-08-22T15:07:36Z</time>
      </trkpt>
      <trkpt lat="46.21492" lon="6.51811">
        <ele>1293.203125</ele>
        <time>2021-08-22T15:07:37Z</time>
      </trkpt>
      <trkpt lat="46.21495" lon="6.51811">
        <ele>1293.3359375</ele>
        <time>2021-08-22T15:07:38Z</time>
      </trkpt>
      <trkpt lat="46.21497" lon="6.51811">
        <ele>1293.546875</ele>
        <time>2021-08-22T15:07:39Z</time>
      </trkpt>
      <trkpt lat="46.21539" lon="6.51822">
        <ele>1300.53125</ele>
        <time>2021-08-22T15:07:51Z</time>
      </trkpt>
      <trkpt lat="46.21552" lon="6.51824">
        <ele>1302.140625</ele>
        <time>2021-08-22T15:07:54Z</time>
      </trkpt>
      <trkpt lat="46.21566" lon="6.51824">
        <ele>1303.2578125</ele>
        <time>2021-08-22T15:07:57Z</time>
      </trkpt>
      <trkpt lat="46.2157" lon="6.51824">
        <ele>1303.40625</ele>
        <time>2021-08-22T15:07:58Z</time>
      </trkpt>
      <trkpt lat="46.21574" lon="6.51824">
        <ele>1303.51171875</ele>
        <time>2021-08-22T15:07:59Z</time>
      </trkpt>
      <trkpt lat="46.21577" lon="6.51823">
        <ele>1303.28125</ele>
        <time>2021-08-22T15:08:00Z</time>
      </trkpt>
      <trkpt lat="46.2158" lon="6.51822">
        <ele>1303.015625</ele>
        <time>2021-08-22T15:08:01Z</time>
      </trkpt>
      <trkpt lat="46.21583" lon="6.51821">
        <ele>1302.89453125</ele>
        <time>2021-08-22T15:08:02Z</time>
      </trkpt>
      <trkpt lat="46.21621" lon="6.51817">
        <ele>1301.4375</ele>
        <time>2021-08-22T15:08:12Z</time>
      </trkpt>
      <trkpt lat="46.21654" lon="6.51818">
        <ele>1300.7734375</ele>
        <time>2021-08-22T15:08:17Z</time>
      </trkpt>
      <trkpt lat="46.21661" lon="6.51818">
        <ele>1300.48828125</ele>
        <time>2021-08-22T15:08:18Z</time>
      </trkpt>
      <trkpt lat="46.21682" lon="6.51817">
        <ele>1298.33203125</ele>
        <time>2021-08-22T15:08:21Z</time>
      </trkpt>
      <trkpt lat="46.21697" lon="6.51815">
        <ele>1295.734375</ele>
        <time>2021-08-22T15:08:24Z</time>
      </trkpt>
      <trkpt lat="46.21718" lon="6.51814">
        <ele>1293.79296875</ele>
        <time>2021-08-22T15:08:28Z</time>
      </trkpt>
      <trkpt lat="46.21724" lon="6.51811">
        <ele>1292.5703125</ele>
        <time>2021-08-22T15:08:29Z</time>
      </trkpt>
      <trkpt lat="46.21729" lon="6.51808">
        <ele>1290.85546875</ele>
        <time>2021-08-22T15:08:30Z</time>
      </trkpt>
      <trkpt lat="46.21734" lon="6.51803">
        <ele>1288.81640625</ele>
        <time>2021-08-22T15:08:31Z</time>
      </trkpt>
      <trkpt lat="46.21738" lon="6.51799">
        <ele>1286.7578125</ele>
        <time>2021-08-22T15:08:32Z</time>
      </trkpt>
      <trkpt lat="46.21742" lon="6.51794">
        <ele>1286.15625</ele>
        <time>2021-08-22T15:08:33Z</time>
      </trkpt>
      <trkpt lat="46.21746" lon="6.51789">
        <ele>1286.0546875</ele>
        <time>2021-08-22T15:08:34Z</time>
      </trkpt>
      <trkpt lat="46.21749" lon="6.51785">
        <ele>1285.73828125</ele>
        <time>2021-08-22T15:08:35Z</time>
      </trkpt>
      <trkpt lat="46.21771" lon="6.5175">
        <ele>1280.8046875</ele>
        <time>2021-08-22T15:08:43Z</time>
      </trkpt>
      <trkpt lat="46.21788" lon="6.51722">
        <ele>1278.27734375</ele>
        <time>2021-08-22T15:08:53Z</time>
      </trkpt>
      <trkpt lat="46.21799" lon="6.517">
        <ele>1276.80859375</ele>
        <time>2021-08-22T15:09:01Z</time>
      </trkpt>
      <trkpt lat="46.21808" lon="6.5168">
        <ele>1276.1484375</ele>
        <time>2021-08-22T15:09:09Z</time>
      </trkpt>
      <trkpt lat="46.21815" lon="6.51677">
        <ele>1281.0234375</ele>
        <time>2021-08-22T15:09:15Z</time>
      </trkpt>
      <trkpt lat="46.21818" lon="6.51676">
        <ele>1282.8671875</ele>
        <time>2021-08-22T15:09:17Z</time>
      </trkpt>
      <trkpt lat="46.21823" lon="6.51673">
        <ele>1286.07421875</ele>
        <time>2021-08-22T15:09:20Z</time>
      </trkpt>
      <trkpt lat="46.21826" lon="6.51672">
        <ele>1287.0390625</ele>
        <time>2021-08-22T15:09:22Z</time>
      </trkpt>
      <trkpt lat="46.21836" lon="6.51669">
        <ele>1290.953125</ele>
        <time>2021-08-22T15:09:28Z</time>
      </trkpt>
      <trkpt lat="46.21839" lon="6.51668">
        <ele>1292.13671875</ele>
        <time>2021-08-22T15:09:30Z</time>
      </trkpt>
      <trkpt lat="46.21852" lon="6.5166">
        <ele>1295.8046875</ele>
        <time>2021-08-22T15:09:37Z</time>
      </trkpt>
      <trkpt lat="46.21859" lon="6.51659">
        <ele>1298.08203125</ele>
        <time>2021-08-22T15:09:42Z</time>
      </trkpt>
      <trkpt lat="46.21869" lon="6.51667">
        <ele>1303.4296875</ele>
        <time>2021-08-22T15:09:49Z</time>
      </trkpt>
      <trkpt lat="46.2187" lon="6.51668">
        <ele>1304.20703125</ele>
        <time>2021-08-22T15:09:50Z</time>
      </trkpt>
      <trkpt lat="46.21877" lon="6.51688">
        <ele>1312.265625</ele>
        <time>2021-08-22T15:10:01Z</time>
      </trkpt>
      <trkpt lat="46.21879" lon="6.5169">
        <ele>1312.9375</ele>
        <time>2021-08-22T15:10:03Z</time>
      </trkpt>
      <trkpt lat="46.21897" lon="6.51715">
        <ele>1317.2578125</ele>
        <time>2021-08-22T15:10:16Z</time>
      </trkpt>
      <trkpt lat="46.219" lon="6.5172">
        <ele>1318.01953125</ele>
        <time>2021-08-22T15:10:19Z</time>
      </trkpt>
      <trkpt lat="46.21901" lon="6.51722">
        <ele>1318.296875</ele>
        <time>2021-08-22T15:10:20Z</time>
      </trkpt>
      <trkpt lat="46.21902" lon="6.51723">
        <ele>1318.484375</ele>
        <time>2021-08-22T15:10:21Z</time>
      </trkpt>
      <trkpt lat="46.21904" lon="6.51725">
        <ele>1318.68359375</ele>
        <time>2021-08-22T15:10:22Z</time>
      </trkpt>
      <trkpt lat="46.21906" lon="6.51727">
        <ele>1318.8359375</ele>
        <time>2021-08-22T15:10:23Z</time>
      </trkpt>
      <trkpt lat="46.21909" lon="6.51732">
        <ele>1319.48828125</ele>
        <time>2021-08-22T15:10:26Z</time>
      </trkpt>
      <trkpt lat="46.21919" lon="6.51745">
        <ele>1321.484375</ele>
        <time>2021-08-22T15:10:34Z</time>
      </trkpt>
      <trkpt lat="46.21922" lon="6.5175">
        <ele>1322.234375</ele>
        <time>2021-08-22T15:10:37Z</time>
      </trkpt>
      <trkpt lat="46.21922" lon="6.51752">
        <ele>1322.6328125</ele>
        <time>2021-08-22T15:10:38Z</time>
      </trkpt>
      <trkpt lat="46.21922" lon="6.51754">
        <ele>1323.08984375</ele>
        <time>2021-08-22T15:10:39Z</time>
      </trkpt>
      <trkpt lat="46.21938" lon="6.51787">
        <ele>1329.04296875</ele>
        <time>2021-08-22T15:10:54Z</time>
      </trkpt>
      <trkpt lat="46.21958" lon="6.51803">
        <ele>1330.546875</ele>
        <time>2021-08-22T15:11:07Z</time>
      </trkpt>
      <trkpt lat="46.21959" lon="6.51803">
        <ele>1330.5078125</ele>
        <time>2021-08-22T15:11:08Z</time>
      </trkpt>
      <trkpt lat="46.21982" lon="6.51805">
        <ele>1330.63671875</ele>
        <time>2021-08-22T15:11:22Z</time>
      </trkpt>
      <trkpt lat="46.21991" lon="6.51808">
        <ele>1331.4609375</ele>
        <time>2021-08-22T15:11:28Z</time>
      </trkpt>
      <trkpt lat="46.21993" lon="6.51809">
        <ele>1331.71484375</ele>
        <time>2021-08-22T15:11:29Z</time>
      </trkpt>
      <trkpt lat="46.21994" lon="6.5181">
        <ele>1332.01171875</ele>
        <time>2021-08-22T15:11:30Z</time>
      </trkpt>
      <trkpt lat="46.21996" lon="6.5181">
        <ele>1332.27734375</ele>
        <time>2021-08-22T15:11:31Z</time>
      </trkpt>
      <trkpt lat="46.21997" lon="6.51811">
        <ele>1332.5234375</ele>
        <time>2021-08-22T15:11:32Z</time>
      </trkpt>
      <trkpt lat="46.21998" lon="6.51812">
        <ele>1332.80859375</ele>
        <time>2021-08-22T15:11:33Z</time>
      </trkpt>
      <trkpt lat="46.22006" lon="6.51819">
        <ele>1334.8046875</ele>
        <time>2021-08-22T15:11:39Z</time>
      </trkpt>
      <trkpt lat="46.22011" lon="6.51828">
        <ele>1337.07421875</ele>
        <time>2021-08-22T15:11:44Z</time>
      </trkpt>
      <trkpt lat="46.22012" lon="6.51829">
        <ele>1337.48046875</ele>
        <time>2021-08-22T15:11:45Z</time>
      </trkpt>
      <trkpt lat="46.22013" lon="6.51831">
        <ele>1337.98828125</ele>
        <time>2021-08-22T15:11:46Z</time>
      </trkpt>
      <trkpt lat="46.22014" lon="6.51833">
        <ele>1338.5078125</ele>
        <time>2021-08-22T15:11:47Z</time>
      </trkpt>
      <trkpt lat="46.22015" lon="6.51834">
        <ele>1338.90625</ele>
        <time>2021-08-22T15:11:48Z</time>
      </trkpt>
      <trkpt lat="46.22017" lon="6.51836">
        <ele>1339.30859375</ele>
        <time>2021-08-22T15:11:49Z</time>
      </trkpt>
      <trkpt lat="46.22037" lon="6.51857">
        <ele>1343.234375</ele>
        <time>2021-08-22T15:11:59Z</time>
      </trkpt>
      <trkpt lat="46.22038" lon="6.51859">
        <ele>1343.484375</ele>
        <time>2021-08-22T15:12:00Z</time>
      </trkpt>
      <trkpt lat="46.22039" lon="6.51861">
        <ele>1343.85546875</ele>
        <time>2021-08-22T15:12:01Z</time>
      </trkpt>
      <trkpt lat="46.22041" lon="6.51863">
        <ele>1344.27734375</ele>
        <time>2021-08-22T15:12:02Z</time>
      </trkpt>
      <trkpt lat="46.22042" lon="6.51865">
        <ele>1344.74609375</ele>
        <time>2021-08-22T15:12:03Z</time>
      </trkpt>
      <trkpt lat="46.22043" lon="6.51867">
        <ele>1345.18359375</ele>
        <time>2021-08-22T15:12:04Z</time>
      </trkpt>
      <trkpt lat="46.22044" lon="6.51869">
        <ele>1345.609375</ele>
        <time>2021-08-22T15:12:05Z</time>
      </trkpt>
      <trkpt lat="46.22045" lon="6.51872">
        <ele>1346.07421875</ele>
        <time>2021-08-22T15:12:06Z</time>
      </trkpt>
      <trkpt lat="46.22053" lon="6.51883">
        <ele>1348.09375</ele>
        <time>2021-08-22T15:12:12Z</time>
      </trkpt>
      <trkpt lat="46.22055" lon="6.51884">
        <ele>1348.25390625</ele>
        <time>2021-08-22T15:12:13Z</time>
      </trkpt>
      <trkpt lat="46.22057" lon="6.51886">
        <ele>1348.46484375</ele>
        <time>2021-08-22T15:12:14Z</time>
      </trkpt>
      <trkpt lat="46.22084" lon="6.51906">
        <ele>1351.27734375</ele>
        <time>2021-08-22T15:12:27Z</time>
      </trkpt>
      <trkpt lat="46.22104" lon="6.51922">
        <ele>1352.67578125</ele>
        <time>2021-08-22T15:12:36Z</time>
      </trkpt>
      <trkpt lat="46.22132" lon="6.51942">
        <ele>1352.20703125</ele>
        <time>2021-08-22T15:12:49Z</time>
      </trkpt>
      <trkpt lat="46.22137" lon="6.51947">
        <ele>1351.96875</ele>
        <time>2021-08-22T15:13:02Z</time>
      </trkpt>
      <trkpt lat="46.22142" lon="6.51948">
        <ele>1351.1796875</ele>
        <time>2021-08-22T15:13:32Z</time>
      </trkpt>
      <trkpt lat="46.2216" lon="6.51962">
        <ele>1349.5625</ele>
        <time>2021-08-22T15:13:40Z</time>
      </trkpt>
      <trkpt lat="46.22164" lon="6.51965">
        <ele>1349.42578125</ele>
        <time>2021-08-22T15:13:41Z</time>
      </trkpt>
      <trkpt lat="46.22173" lon="6.51974">
        <ele>1350.42578125</ele>
        <time>2021-08-22T15:13:43Z</time>
      </trkpt>
      <trkpt lat="46.22183" lon="6.51986">
        <ele>1352.40234375</ele>
        <time>2021-08-22T15:13:45Z</time>
      </trkpt>
      <trkpt lat="46.22187" lon="6.51992">
        <ele>1353.43359375</ele>
        <time>2021-08-22T15:13:46Z</time>
      </trkpt>
      <trkpt lat="46.22191" lon="6.51997">
        <ele>1353.95703125</ele>
        <time>2021-08-22T15:13:47Z</time>
      </trkpt>
      <trkpt lat="46.22195" lon="6.51999">
        <ele>1354.125</ele>
        <time>2021-08-22T15:13:49Z</time>
      </trkpt>
      <trkpt lat="46.22198" lon="6.52002">
        <ele>1354.6015625</ele>
        <time>2021-08-22T15:13:59Z</time>
      </trkpt>
      <trkpt lat="46.22205" lon="6.5201">
        <ele>1355.87890625</ele>
        <time>2021-08-22T15:14:12Z</time>
      </trkpt>
      <trkpt lat="46.22212" lon="6.52017">
        <ele>1357.12109375</ele>
        <time>2021-08-22T15:14:19Z</time>
      </trkpt>
      <trkpt lat="46.22232" lon="6.52025">
        <ele>1356.9296875</ele>
        <time>2021-08-22T15:14:29Z</time>
      </trkpt>
      <trkpt lat="46.22235" lon="6.52026">
        <ele>1356.8203125</ele>
        <time>2021-08-22T15:14:30Z</time>
      </trkpt>
      <trkpt lat="46.22256" lon="6.52031">
        <ele>1354.90234375</ele>
        <time>2021-08-22T15:14:38Z</time>
      </trkpt>
      <trkpt lat="46.22258" lon="6.52033">
        <ele>1354.98828125</ele>
        <time>2021-08-22T15:14:39Z</time>
      </trkpt>
      <trkpt lat="46.22262" lon="6.52035">
        <ele>1355.28515625</ele>
        <time>2021-08-22T15:14:40Z</time>
      </trkpt>
      <trkpt lat="46.22287" lon="6.52051">
        <ele>1355.1875</ele>
        <time>2021-08-22T15:14:51Z</time>
      </trkpt>
      <trkpt lat="46.22316" lon="6.52059">
        <ele>1348.52734375</ele>
        <time>2021-08-22T15:14:58Z</time>
      </trkpt>
      <trkpt lat="46.22332" lon="6.52057">
        <ele>1343.0546875</ele>
        <time>2021-08-22T15:15:01Z</time>
      </trkpt>
      <trkpt lat="46.22339" lon="6.52056">
        <ele>1340.43359375</ele>
        <time>2021-08-22T15:15:02Z</time>
      </trkpt>
      <trkpt lat="46.22352" lon="6.5205">
        <ele>1335.2734375</ele>
        <time>2021-08-22T15:15:04Z</time>
      </trkpt>
      <trkpt lat="46.22358" lon="6.52047">
        <ele>1333.2734375</ele>
        <time>2021-08-22T15:15:05Z</time>
      </trkpt>
      <trkpt lat="46.22375" lon="6.52042">
        <ele>1328.9140625</ele>
        <time>2021-08-22T15:15:08Z</time>
      </trkpt>
      <trkpt lat="46.2238" lon="6.52042">
        <ele>1327.81640625</ele>
        <time>2021-08-22T15:15:09Z</time>
      </trkpt>
      <trkpt lat="46.22384" lon="6.52044">
        <ele>1326.80078125</ele>
        <time>2021-08-22T15:15:10Z</time>
      </trkpt>
      <trkpt lat="46.2239" lon="6.52055">
        <ele>1325.828125</ele>
        <time>2021-08-22T15:15:13Z</time>
      </trkpt>
      <trkpt lat="46.2239" lon="6.5206">
        <ele>1326.078125</ele>
        <time>2021-08-22T15:15:14Z</time>
      </trkpt>
      <trkpt lat="46.22391" lon="6.52065">
        <ele>1326.09765625</ele>
        <time>2021-08-22T15:15:15Z</time>
      </trkpt>
      <trkpt lat="46.22393" lon="6.5207">
        <ele>1325.82421875</ele>
        <time>2021-08-22T15:15:16Z</time>
      </trkpt>
      <trkpt lat="46.22395" lon="6.52075">
        <ele>1325.453125</ele>
        <time>2021-08-22T15:15:17Z</time>
      </trkpt>
      <trkpt lat="46.22397" lon="6.52078">
        <ele>1324.5859375</ele>
        <time>2021-08-22T15:15:18Z</time>
      </trkpt>
      <trkpt lat="46.224" lon="6.52082">
        <ele>1323.46484375</ele>
        <time>2021-08-22T15:15:19Z</time>
      </trkpt>
      <trkpt lat="46.22403" lon="6.52087">
        <ele>1322.3203125</ele>
        <time>2021-08-22T15:15:20Z</time>
      </trkpt>
      <trkpt lat="46.2241" lon="6.52108">
        <ele>1318.21484375</ele>
        <time>2021-08-22T15:15:23Z</time>
      </trkpt>
      <trkpt lat="46.22412" lon="6.52117">
        <ele>1316.953125</ele>
        <time>2021-08-22T15:15:24Z</time>
      </trkpt>
      <trkpt lat="46.22423" lon="6.52163">
        <ele>1308.5859375</ele>
        <time>2021-08-22T15:15:30Z</time>
      </trkpt>
      <trkpt lat="46.22426" lon="6.52169">
        <ele>1306.71484375</ele>
        <time>2021-08-22T15:15:31Z</time>
      </trkpt>
      <trkpt lat="46.22427" lon="6.52176">
        <ele>1305.14453125</ele>
        <time>2021-08-22T15:15:32Z</time>
      </trkpt>
      <trkpt lat="46.22429" lon="6.52182">
        <ele>1303.8984375</ele>
        <time>2021-08-22T15:15:33Z</time>
      </trkpt>
      <trkpt lat="46.2243" lon="6.52189">
        <ele>1302.57421875</ele>
        <time>2021-08-22T15:15:34Z</time>
      </trkpt>
      <trkpt lat="46.22433" lon="6.52196">
        <ele>1301.00390625</ele>
        <time>2021-08-22T15:15:35Z</time>
      </trkpt>
      <trkpt lat="46.22436" lon="6.52204">
        <ele>1299.99609375</ele>
        <time>2021-08-22T15:15:36Z</time>
      </trkpt>
      <trkpt lat="46.2244" lon="6.52219">
        <ele>1298.9296875</ele>
        <time>2021-08-22T15:15:38Z</time>
      </trkpt>
      <trkpt lat="46.22442" lon="6.52226">
        <ele>1298.64453125</ele>
        <time>2021-08-22T15:15:39Z</time>
      </trkpt>
      <trkpt lat="46.22442" lon="6.52234">
        <ele>1298.53515625</ele>
        <time>2021-08-22T15:15:40Z</time>
      </trkpt>
      <trkpt lat="46.2244" lon="6.52241">
        <ele>1298.546875</ele>
        <time>2021-08-22T15:15:41Z</time>
      </trkpt>
      <trkpt lat="46.22438" lon="6.52249">
        <ele>1298.49609375</ele>
        <time>2021-08-22T15:15:42Z</time>
      </trkpt>
      <trkpt lat="46.22431" lon="6.52263">
        <ele>1298.64453125</ele>
        <time>2021-08-22T15:15:45Z</time>
      </trkpt>
      <trkpt lat="46.22426" lon="6.52272">
        <ele>1299.24609375</ele>
        <time>2021-08-22T15:15:54Z</time>
      </trkpt>
      <trkpt lat="46.22427" lon="6.52274">
        <ele>1299.1484375</ele>
        <time>2021-08-22T15:15:55Z</time>
      </trkpt>
      <trkpt lat="46.22425" lon="6.52284">
        <ele>1299.06640625</ele>
        <time>2021-08-22T15:16:05Z</time>
      </trkpt>
      <trkpt lat="46.22423" lon="6.52286">
        <ele>1299.16796875</ele>
        <time>2021-08-22T15:16:06Z</time>
      </trkpt>
      <trkpt lat="46.22422" lon="6.52291">
        <ele>1299.09765625</ele>
        <time>2021-08-22T15:16:07Z</time>
      </trkpt>
      <trkpt lat="46.22422" lon="6.52296">
        <ele>1298.87109375</ele>
        <time>2021-08-22T15:16:08Z</time>
      </trkpt>
      <trkpt lat="46.22422" lon="6.52302">
        <ele>1298.45703125</ele>
        <time>2021-08-22T15:16:09Z</time>
      </trkpt>
      <trkpt lat="46.22422" lon="6.52309">
        <ele>1298</ele>
        <time>2021-08-22T15:16:10Z</time>
      </trkpt>
      <trkpt lat="46.2244" lon="6.52357">
        <ele>1294.7109375</ele>
        <time>2021-08-22T15:16:20Z</time>
      </trkpt>
      <trkpt lat="46.22465" lon="6.524">
        <ele>1291.92578125</ele>
        <time>2021-08-22T15:16:31Z</time>
      </trkpt>
      <trkpt lat="46.22474" lon="6.5241">
        <ele>1290.57421875</ele>
        <time>2021-08-22T15:16:34Z</time>
      </trkpt>
      <trkpt lat="46.22487" lon="6.52419">
        <ele>1288.54296875</ele>
        <time>2021-08-22T15:16:37Z</time>
      </trkpt>
      <trkpt lat="46.22491" lon="6.52423">
        <ele>1287.65625</ele>
        <time>2021-08-22T15:16:38Z</time>
      </trkpt>
      <trkpt lat="46.22494" lon="6.52427">
        <ele>1286.69921875</ele>
        <time>2021-08-22T15:16:39Z</time>
      </trkpt>
      <trkpt lat="46.22497" lon="6.52433">
        <ele>1285.78125</ele>
        <time>2021-08-22T15:16:40Z</time>
      </trkpt>
      <trkpt lat="46.22499" lon="6.5244">
        <ele>1285.078125</ele>
        <time>2021-08-22T15:16:41Z</time>
      </trkpt>
      <trkpt lat="46.22502" lon="6.52448">
        <ele>1284.46484375</ele>
        <time>2021-08-22T15:16:42Z</time>
      </trkpt>
      <trkpt lat="46.22505" lon="6.52456">
        <ele>1283.625</ele>
        <time>2021-08-22T15:16:43Z</time>
      </trkpt>
      <trkpt lat="46.22509" lon="6.52463">
        <ele>1282.6171875</ele>
        <time>2021-08-22T15:16:44Z</time>
      </trkpt>
      <trkpt lat="46.22526" lon="6.52492">
        <ele>1277.12109375</ele>
        <time>2021-08-22T15:16:49Z</time>
      </trkpt>
      <trkpt lat="46.22536" lon="6.52506">
        <ele>1274.11328125</ele>
        <time>2021-08-22T15:16:54Z</time>
      </trkpt>
      <trkpt lat="46.22538" lon="6.52518">
        <ele>1272.8515625</ele>
        <time>2021-08-22T15:16:57Z</time>
      </trkpt>
      <trkpt lat="46.22539" lon="6.52522">
        <ele>1272.55078125</ele>
        <time>2021-08-22T15:16:58Z</time>
      </trkpt>
      <trkpt lat="46.2254" lon="6.52526">
        <ele>1272.0625</ele>
        <time>2021-08-22T15:16:59Z</time>
      </trkpt>
      <trkpt lat="46.22541" lon="6.5253">
        <ele>1271.71875</ele>
        <time>2021-08-22T15:17:00Z</time>
      </trkpt>
      <trkpt lat="46.22542" lon="6.52535">
        <ele>1271.23046875</ele>
        <time>2021-08-22T15:17:01Z</time>
      </trkpt>
      <trkpt lat="46.22544" lon="6.5254">
        <ele>1270.40625</ele>
        <time>2021-08-22T15:17:02Z</time>
      </trkpt>
      <trkpt lat="46.22548" lon="6.52545">
        <ele>1269.53125</ele>
        <time>2021-08-22T15:17:03Z</time>
      </trkpt>
      <trkpt lat="46.22552" lon="6.52551">
        <ele>1268.52734375</ele>
        <time>2021-08-22T15:17:04Z</time>
      </trkpt>
      <trkpt lat="46.22557" lon="6.52556">
        <ele>1267.4921875</ele>
        <time>2021-08-22T15:17:05Z</time>
      </trkpt>
      <trkpt lat="46.22567" lon="6.52567">
        <ele>1265.26171875</ele>
        <time>2021-08-22T15:17:07Z</time>
      </trkpt>
      <trkpt lat="46.22572" lon="6.52571">
        <ele>1264.14453125</ele>
        <time>2021-08-22T15:17:08Z</time>
      </trkpt>
      <trkpt lat="46.2259" lon="6.52582">
        <ele>1260.53515625</ele>
        <time>2021-08-22T15:17:11Z</time>
      </trkpt>
      <trkpt lat="46.22595" lon="6.52583">
        <ele>1259.6171875</ele>
        <time>2021-08-22T15:17:12Z</time>
      </trkpt>
      <trkpt lat="46.22599" lon="6.52583">
        <ele>1258.828125</ele>
        <time>2021-08-22T15:17:13Z</time>
      </trkpt>
      <trkpt lat="46.22605" lon="6.52582">
        <ele>1258.22265625</ele>
        <time>2021-08-22T15:17:14Z</time>
      </trkpt>
      <trkpt lat="46.2261" lon="6.5258">
        <ele>1257.671875</ele>
        <time>2021-08-22T15:17:15Z</time>
      </trkpt>
      <trkpt lat="46.22615" lon="6.52579">
        <ele>1257.1640625</ele>
        <time>2021-08-22T15:17:16Z</time>
      </trkpt>
      <trkpt lat="46.2262" lon="6.52578">
        <ele>1256.70703125</ele>
        <time>2021-08-22T15:17:17Z</time>
      </trkpt>
      <trkpt lat="46.22632" lon="6.5257">
        <ele>1255.8515625</ele>
        <time>2021-08-22T15:17:22Z</time>
      </trkpt>
      <trkpt lat="46.22632" lon="6.52568">
        <ele>1255.97265625</ele>
        <time>2021-08-22T15:17:23Z</time>
      </trkpt>
      <trkpt lat="46.22633" lon="6.52566">
        <ele>1256.0546875</ele>
        <time>2021-08-22T15:17:24Z</time>
      </trkpt>
      <trkpt lat="46.22634" lon="6.5255">
        <ele>1256.88671875</ele>
        <time>2021-08-22T15:17:37Z</time>
      </trkpt>
      <trkpt lat="46.22636" lon="6.52548">
        <ele>1256.7578125</ele>
        <time>2021-08-22T15:17:38Z</time>
      </trkpt>
      <trkpt lat="46.22639" lon="6.52544">
        <ele>1256.4375</ele>
        <time>2021-08-22T15:17:39Z</time>
      </trkpt>
      <trkpt lat="46.22641" lon="6.52539">
        <ele>1256.0546875</ele>
        <time>2021-08-22T15:17:40Z</time>
      </trkpt>
      <trkpt lat="46.22644" lon="6.52536">
        <ele>1255.671875</ele>
        <time>2021-08-22T15:17:41Z</time>
      </trkpt>
      <trkpt lat="46.22659" lon="6.52508">
        <ele>1253.46484375</ele>
        <time>2021-08-22T15:17:48Z</time>
      </trkpt>
      <trkpt lat="46.22663" lon="6.52508">
        <ele>1252.875</ele>
        <time>2021-08-22T15:17:55Z</time>
      </trkpt>
      <trkpt lat="46.22675" lon="6.52508">
        <ele>1251.27734375</ele>
        <time>2021-08-22T15:17:59Z</time>
      </trkpt>
      <trkpt lat="46.2268" lon="6.52509">
        <ele>1250.42578125</ele>
        <time>2021-08-22T15:18:01Z</time>
      </trkpt>
      <trkpt lat="46.22683" lon="6.52508">
        <ele>1249.99609375</ele>
        <time>2021-08-22T15:18:02Z</time>
      </trkpt>
      <trkpt lat="46.22687" lon="6.52506">
        <ele>1249.47265625</ele>
        <time>2021-08-22T15:18:03Z</time>
      </trkpt>
      <trkpt lat="46.22691" lon="6.52502">
        <ele>1248.953125</ele>
        <time>2021-08-22T15:18:04Z</time>
      </trkpt>
      <trkpt lat="46.22694" lon="6.52498">
        <ele>1248.44921875</ele>
        <time>2021-08-22T15:18:05Z</time>
      </trkpt>
      <trkpt lat="46.22696" lon="6.52494">
        <ele>1248.18359375</ele>
        <time>2021-08-22T15:18:06Z</time>
      </trkpt>
      <trkpt lat="46.22698" lon="6.52485">
        <ele>1247.6328125</ele>
        <time>2021-08-22T15:18:11Z</time>
      </trkpt>
      <trkpt lat="46.22699" lon="6.52482">
        <ele>1247.28515625</ele>
        <time>2021-08-22T15:18:12Z</time>
      </trkpt>
      <trkpt lat="46.227" lon="6.52478">
        <ele>1246.87890625</ele>
        <time>2021-08-22T15:18:13Z</time>
      </trkpt>
      <trkpt lat="46.22701" lon="6.52474">
        <ele>1246.4765625</ele>
        <time>2021-08-22T15:18:14Z</time>
      </trkpt>
      <trkpt lat="46.22702" lon="6.52469">
        <ele>1246.00390625</ele>
        <time>2021-08-22T15:18:15Z</time>
      </trkpt>
      <trkpt lat="46.22706" lon="6.52455">
        <ele>1244.2890625</ele>
        <time>2021-08-22T15:18:17Z</time>
      </trkpt>
      <trkpt lat="46.22711" lon="6.52438">
        <ele>1242.30078125</ele>
        <time>2021-08-22T15:18:23Z</time>
      </trkpt>
      <trkpt lat="46.22712" lon="6.52438">
        <ele>1241.87109375</ele>
        <time>2021-08-22T15:18:26Z</time>
      </trkpt>
      <trkpt lat="46.22714" lon="6.52437">
        <ele>1241.38671875</ele>
        <time>2021-08-22T15:18:27Z</time>
      </trkpt>
      <trkpt lat="46.22715" lon="6.52435">
        <ele>1240.93359375</ele>
        <time>2021-08-22T15:18:28Z</time>
      </trkpt>
      <trkpt lat="46.22717" lon="6.52429">
        <ele>1240.18359375</ele>
        <time>2021-08-22T15:18:40Z</time>
      </trkpt>
      <trkpt lat="46.22718" lon="6.52417">
        <ele>1239.52734375</ele>
        <time>2021-08-22T15:18:52Z</time>
      </trkpt>
      <trkpt lat="46.22719" lon="6.52415">
        <ele>1239.04296875</ele>
        <time>2021-08-22T15:18:53Z</time>
      </trkpt>
      <trkpt lat="46.2273" lon="6.52404">
        <ele>1235.47265625</ele>
        <time>2021-08-22T15:18:58Z</time>
      </trkpt>
      <trkpt lat="46.22744" lon="6.52394">
        <ele>1231.08203125</ele>
        <time>2021-08-22T15:19:03Z</time>
      </trkpt>
      <trkpt lat="46.2275" lon="6.52388">
        <ele>1229.11328125</ele>
        <time>2021-08-22T15:19:07Z</time>
      </trkpt>
      <trkpt lat="46.22764" lon="6.52372">
        <ele>1224.7734375</ele>
        <time>2021-08-22T15:19:12Z</time>
      </trkpt>
      <trkpt lat="46.22767" lon="6.52367">
        <ele>1223.9375</ele>
        <time>2021-08-22T15:19:13Z</time>
      </trkpt>
      <trkpt lat="46.22769" lon="6.52361">
        <ele>1223.49609375</ele>
        <time>2021-08-22T15:19:14Z</time>
      </trkpt>
      <trkpt lat="46.22771" lon="6.52356">
        <ele>1223.1796875</ele>
        <time>2021-08-22T15:19:15Z</time>
      </trkpt>
      <trkpt lat="46.22773" lon="6.52352">
        <ele>1222.80859375</ele>
        <time>2021-08-22T15:19:16Z</time>
      </trkpt>
      <trkpt lat="46.22776" lon="6.52348">
        <ele>1222.27734375</ele>
        <time>2021-08-22T15:19:17Z</time>
      </trkpt>
      <trkpt lat="46.22809" lon="6.52319">
        <ele>1218.5625</ele>
        <time>2021-08-22T15:19:28Z</time>
      </trkpt>
      <trkpt lat="46.22824" lon="6.52306">
        <ele>1217.66796875</ele>
        <time>2021-08-22T15:19:32Z</time>
      </trkpt>
      <trkpt lat="46.22834" lon="6.52293">
        <ele>1218.18359375</ele>
        <time>2021-08-22T15:19:36Z</time>
      </trkpt>
      <trkpt lat="46.22841" lon="6.52285">
        <ele>1218.734375</ele>
        <time>2021-08-22T15:19:41Z</time>
      </trkpt>
      <trkpt lat="46.22842" lon="6.52283">
        <ele>1218.8359375</ele>
        <time>2021-08-22T15:19:43Z</time>
      </trkpt>
      <trkpt lat="46.22841" lon="6.52281">
        <ele>1218.98046875</ele>
        <time>2021-08-22T15:19:56Z</time>
      </trkpt>
      <trkpt lat="46.22844" lon="6.52274">
        <ele>1219.46875</ele>
        <time>2021-08-22T15:20:09Z</time>
      </trkpt>
      <trkpt lat="46.22845" lon="6.52275">
        <ele>1219.45703125</ele>
        <time>2021-08-22T15:20:22Z</time>
      </trkpt>
      <trkpt lat="46.22847" lon="6.52271">
        <ele>1219.76171875</ele>
        <time>2021-08-22T15:20:36Z</time>
      </trkpt>
      <trkpt lat="46.2285" lon="6.52265">
        <ele>1220.43359375</ele>
        <time>2021-08-22T15:20:49Z</time>
      </trkpt>
      <trkpt lat="46.22856" lon="6.52253">
        <ele>1222.0546875</ele>
        <time>2021-08-22T15:21:04Z</time>
      </trkpt>
      <trkpt lat="46.22861" lon="6.52247">
        <ele>1223.13671875</ele>
        <time>2021-08-22T15:21:08Z</time>
      </trkpt>
      <trkpt lat="46.22867" lon="6.52238">
        <ele>1224.6015625</ele>
        <time>2021-08-22T15:21:14Z</time>
      </trkpt>
      <trkpt lat="46.22883" lon="6.52216">
        <ele>1228.328125</ele>
        <time>2021-08-22T15:21:29Z</time>
      </trkpt>
      <trkpt lat="46.22895" lon="6.52206">
        <ele>1230.9921875</ele>
        <time>2021-08-22T15:21:38Z</time>
      </trkpt>
      <trkpt lat="46.22897" lon="6.52204">
        <ele>1231.44140625</ele>
        <time>2021-08-22T15:21:40Z</time>
      </trkpt>
      <trkpt lat="46.22917" lon="6.52193">
        <ele>1234.86328125</ele>
        <time>2021-08-22T15:21:54Z</time>
      </trkpt>
      <trkpt lat="46.22918" lon="6.52193">
        <ele>1235.0234375</ele>
        <time>2021-08-22T15:21:55Z</time>
      </trkpt>
      <trkpt lat="46.2292" lon="6.52194">
        <ele>1234.953125</ele>
        <time>2021-08-22T15:21:56Z</time>
      </trkpt>
      <trkpt lat="46.2293" lon="6.52208">
        <ele>1234.32421875</ele>
        <time>2021-08-22T15:22:08Z</time>
      </trkpt>
      <trkpt lat="46.22929" lon="6.52203">
        <ele>1234.7734375</ele>
        <time>2021-08-22T15:22:31Z</time>
      </trkpt>
      <trkpt lat="46.2293" lon="6.5219">
        <ele>1236.3359375</ele>
        <time>2021-08-22T15:22:55Z</time>
      </trkpt>
      <trkpt lat="46.22925" lon="6.52183">
        <ele>1236.73828125</ele>
        <time>2021-08-22T15:23:16Z</time>
      </trkpt>
      <trkpt lat="46.22927" lon="6.52186">
        <ele>1236.52734375</ele>
        <time>2021-08-22T15:23:35Z</time>
      </trkpt>
      <trkpt lat="46.22934" lon="6.52193">
        <ele>1236.33984375</ele>
        <time>2021-08-22T15:23:52Z</time>
      </trkpt>
      <trkpt lat="46.2294" lon="6.522">
        <ele>1235.95703125</ele>
        <time>2021-08-22T15:23:58Z</time>
      </trkpt>
      <trkpt lat="46.22941" lon="6.52205">
        <ele>1235.4609375</ele>
        <time>2021-08-22T15:24:10Z</time>
      </trkpt>
      <trkpt lat="46.22938" lon="6.52203">
        <ele>1235.5546875</ele>
        <time>2021-08-22T15:24:23Z</time>
      </trkpt>
      <trkpt lat="46.22936" lon="6.52172">
        <ele>1238.703125</ele>
        <time>2021-08-22T15:24:39Z</time>
      </trkpt>
      <trkpt lat="46.22937" lon="6.5217">
        <ele>1238.91796875</ele>
        <time>2021-08-22T15:24:40Z</time>
      </trkpt>
      <trkpt lat="46.22946" lon="6.52154">
        <ele>1240.8203125</ele>
        <time>2021-08-22T15:24:47Z</time>
      </trkpt>
      <trkpt lat="46.22946" lon="6.52144">
        <ele>1240.70703125</ele>
        <time>2021-08-22T15:24:50Z</time>
      </trkpt>
      <trkpt lat="46.22945" lon="6.5213">
        <ele>1240.359375</ele>
        <time>2021-08-22T15:24:53Z</time>
      </trkpt>
      <trkpt lat="46.22936" lon="6.52113">
        <ele>1239.2890625</ele>
        <time>2021-08-22T15:24:57Z</time>
      </trkpt>
      <trkpt lat="46.2293" lon="6.52107">
        <ele>1239.13671875</ele>
        <time>2021-08-22T15:25:00Z</time>
      </trkpt>
      <trkpt lat="46.22927" lon="6.52103">
        <ele>1238.9609375</ele>
        <time>2021-08-22T15:25:03Z</time>
      </trkpt>
      <trkpt lat="46.22925" lon="6.521">
        <ele>1238.109375</ele>
        <time>2021-08-22T15:25:04Z</time>
      </trkpt>
      <trkpt lat="46.22919" lon="6.5209">
        <ele>1234.296875</ele>
        <time>2021-08-22T15:25:08Z</time>
      </trkpt>
      <trkpt lat="46.22916" lon="6.52081">
        <ele>1230.98828125</ele>
        <time>2021-08-22T15:25:11Z</time>
      </trkpt>
      <trkpt lat="46.22909" lon="6.52074">
        <ele>1229.16796875</ele>
        <time>2021-08-22T15:25:15Z</time>
      </trkpt>
      <trkpt lat="46.229" lon="6.52064">
        <ele>1225.92578125</ele>
        <time>2021-08-22T15:25:19Z</time>
      </trkpt>
      <trkpt lat="46.22899" lon="6.5206">
        <ele>1224.26171875</ele>
        <time>2021-08-22T15:25:21Z</time>
      </trkpt>
      <trkpt lat="46.22898" lon="6.52055">
        <ele>1222.421875</ele>
        <time>2021-08-22T15:25:23Z</time>
      </trkpt>
      <trkpt lat="46.22896" lon="6.52048">
        <ele>1219.89453125</ele>
        <time>2021-08-22T15:25:27Z</time>
      </trkpt>
      <trkpt lat="46.22891" lon="6.52037">
        <ele>1215.71484375</ele>
        <time>2021-08-22T15:25:30Z</time>
      </trkpt>
      <trkpt lat="46.22889" lon="6.52034">
        <ele>1214.1328125</ele>
        <time>2021-08-22T15:25:31Z</time>
      </trkpt>
      <trkpt lat="46.22887" lon="6.5203">
        <ele>1212.6953125</ele>
        <time>2021-08-22T15:25:32Z</time>
      </trkpt>
      <trkpt lat="46.2287" lon="6.52013">
        <ele>1206.71875</ele>
        <time>2021-08-22T15:25:35Z</time>
      </trkpt>
      <trkpt lat="46.22866" lon="6.52008">
        <ele>1205.328125</ele>
        <time>2021-08-22T15:25:36Z</time>
      </trkpt>
      <trkpt lat="46.22863" lon="6.52005">
        <ele>1204.40234375</ele>
        <time>2021-08-22T15:25:37Z</time>
      </trkpt>
      <trkpt lat="46.22859" lon="6.51999">
        <ele>1202.22265625</ele>
        <time>2021-08-22T15:25:38Z</time>
      </trkpt>
      <trkpt lat="46.22856" lon="6.51995">
        <ele>1200.66015625</ele>
        <time>2021-08-22T15:25:39Z</time>
      </trkpt>
      <trkpt lat="46.22845" lon="6.51983">
        <ele>1196.87109375</ele>
        <time>2021-08-22T15:25:42Z</time>
      </trkpt>
      <trkpt lat="46.22816" lon="6.51961">
        <ele>1193.69140625</ele>
        <time>2021-08-22T15:25:52Z</time>
      </trkpt>
      <trkpt lat="46.22817" lon="6.5197">
        <ele>1197.3125</ele>
        <time>2021-08-22T15:26:19Z</time>
      </trkpt>
      <trkpt lat="46.22814" lon="6.51973">
        <ele>1200.1640625</ele>
        <time>2021-08-22T15:26:41Z</time>
      </trkpt>
      <trkpt lat="46.22813" lon="6.51983">
        <ele>1204.61328125</ele>
        <time>2021-08-22T15:27:04Z</time>
      </trkpt>
      <trkpt lat="46.22812" lon="6.51977">
        <ele>1201.984375</ele>
        <time>2021-08-22T15:27:27Z</time>
      </trkpt>
      <trkpt lat="46.22814" lon="6.51977">
        <ele>1201.6953125</ele>
        <time>2021-08-22T15:27:53Z</time>
      </trkpt>
      <trkpt lat="46.22817" lon="6.51981">
        <ele>1202.484375</ele>
        <time>2021-08-22T15:28:16Z</time>
      </trkpt>
      <trkpt lat="46.22813" lon="6.51985">
        <ele>1205.62109375</ele>
        <time>2021-08-22T15:28:35Z</time>
      </trkpt>
      <trkpt lat="46.22812" lon="6.51982">
        <ele>1204.56640625</ele>
        <time>2021-08-22T15:28:53Z</time>
      </trkpt>
      <trkpt lat="46.22809" lon="6.51974">
        <ele>1201.9375</ele>
        <time>2021-08-22T15:29:18Z</time>
      </trkpt>
      <trkpt lat="46.22813" lon="6.51975">
        <ele>1200.91015625</ele>
        <time>2021-08-22T15:29:32Z</time>
      </trkpt>
      <trkpt lat="46.22819" lon="6.51975">
        <ele>1199.34765625</ele>
        <time>2021-08-22T15:29:57Z</time>
      </trkpt>
      <trkpt lat="46.22821" lon="6.51977">
        <ele>1199.578125</ele>
        <time>2021-08-22T15:30:21Z</time>
      </trkpt>
      <trkpt lat="46.22821" lon="6.51981">
        <ele>1201.50390625</ele>
        <time>2021-08-22T15:30:39Z</time>
      </trkpt>
      <trkpt lat="46.22819" lon="6.51985">
        <ele>1203.9453125</ele>
        <time>2021-08-22T15:31:11Z</time>
      </trkpt>
      <trkpt lat="46.22816" lon="6.51979">
        <ele>1201.9921875</ele>
        <time>2021-08-22T15:31:34Z</time>
      </trkpt>
      <trkpt lat="46.22816" lon="6.51984">
        <ele>1204.20703125</ele>
        <time>2021-08-22T15:31:55Z</time>
      </trkpt>
      <trkpt lat="46.22821" lon="6.5198">
        <ele>1200.94921875</ele>
        <time>2021-08-22T15:32:21Z</time>
      </trkpt>
      <trkpt lat="46.22822" lon="6.51981">
        <ele>1201.171875</ele>
        <time>2021-08-22T15:32:46Z</time>
      </trkpt>
      <trkpt lat="46.22826" lon="6.51981">
        <ele>1200.078125</ele>
        <time>2021-08-22T15:33:12Z</time>
      </trkpt>
      <trkpt lat="46.22825" lon="6.51989">
        <ele>1204.01953125</ele>
        <time>2021-08-22T15:33:51Z</time>
      </trkpt>
      <trkpt lat="46.22828" lon="6.51981">
        <ele>1199.53515625</ele>
        <time>2021-08-22T15:34:15Z</time>
      </trkpt>
      <trkpt lat="46.22825" lon="6.51984">
        <ele>1201.51171875</ele>
        <time>2021-08-22T15:34:47Z</time>
      </trkpt>
      <trkpt lat="46.22824" lon="6.51985">
        <ele>1202.44140625</ele>
        <time>2021-08-22T15:35:08Z</time>
      </trkpt>
      <trkpt lat="46.22826" lon="6.51987">
        <ele>1202.79296875</ele>
        <time>2021-08-22T15:35:34Z</time>
      </trkpt>
      <trkpt lat="46.22823" lon="6.51979">
        <ele>1199.7890625</ele>
        <time>2021-08-22T15:35:59Z</time>
      </trkpt>
      <trkpt lat="46.22826" lon="6.51985">
        <ele>1201.953125</ele>
        <time>2021-08-22T15:36:30Z</time>
      </trkpt>
      <trkpt lat="46.22825" lon="6.51983">
        <ele>1201.33203125</ele>
        <time>2021-08-22T15:37:04Z</time>
      </trkpt>
      <trkpt lat="46.22823" lon="6.51976">
        <ele>1198.45703125</ele>
        <time>2021-08-22T15:37:33Z</time>
      </trkpt>
      <trkpt lat="46.22826" lon="6.51975">
        <ele>1197.42578125</ele>
        <time>2021-08-22T15:37:54Z</time>
      </trkpt>
      <trkpt lat="46.22825" lon="6.51981">
        <ele>1200.4921875</ele>
        <time>2021-08-22T15:38:18Z</time>
      </trkpt>
      <trkpt lat="46.22823" lon="6.51986">
        <ele>1203.0546875</ele>
        <time>2021-08-22T15:38:42Z</time>
      </trkpt>
      <trkpt lat="46.22823" lon="6.51986">
        <ele>1203.3828125</ele>
        <time>2021-08-22T15:39:07Z</time>
      </trkpt>
      <trkpt lat="46.22825" lon="6.51989">
        <ele>1204.23828125</ele>
        <time>2021-08-22T15:39:29Z</time>
      </trkpt>
      <trkpt lat="46.22824" lon="6.51986">
        <ele>1202.76171875</ele>
        <time>2021-08-22T15:39:54Z</time>
      </trkpt>
      <trkpt lat="46.22821" lon="6.51982">
        <ele>1201.7890625</ele>
        <time>2021-08-22T15:40:18Z</time>
      </trkpt>
      <trkpt lat="46.22821" lon="6.51978">
        <ele>1200.1015625</ele>
        <time>2021-08-22T15:40:45Z</time>
      </trkpt>
      <trkpt lat="46.22829" lon="6.51994">
        <ele>1205.62109375</ele>
        <time>2021-08-22T15:41:13Z</time>
      </trkpt>
      <trkpt lat="46.2283" lon="6.51987">
        <ele>1202.25390625</ele>
        <time>2021-08-22T15:41:41Z</time>
      </trkpt>
      <trkpt lat="46.22825" lon="6.51989">
        <ele>1203.8359375</ele>
        <time>2021-08-22T15:42:04Z</time>
      </trkpt>
      <trkpt lat="46.22824" lon="6.51981">
        <ele>1200.7421875</ele>
        <time>2021-08-22T15:42:32Z</time>
      </trkpt>
      <trkpt lat="46.22824" lon="6.51986">
        <ele>1203.078125</ele>
        <time>2021-08-22T15:43:01Z</time>
      </trkpt>
      <trkpt lat="46.22821" lon="6.51988">
        <ele>1204.8203125</ele>
        <time>2021-08-22T15:43:30Z</time>
      </trkpt>
      <trkpt lat="46.22821" lon="6.51987">
        <ele>1204.17578125</ele>
        <time>2021-08-22T15:43:55Z</time>
      </trkpt>
      <trkpt lat="46.2282" lon="6.51983">
        <ele>1202.375</ele>
        <time>2021-08-22T15:44:15Z</time>
      </trkpt>
      <trkpt lat="46.22819" lon="6.51976">
        <ele>1199.56640625</ele>
        <time>2021-08-22T15:44:38Z</time>
      </trkpt>
      <trkpt lat="46.22823" lon="6.51986">
        <ele>1203.171875</ele>
        <time>2021-08-22T15:45:00Z</time>
      </trkpt>
      <trkpt lat="46.22828" lon="6.51987">
        <ele>1202.67578125</ele>
        <time>2021-08-22T15:45:26Z</time>
      </trkpt>
      <trkpt lat="46.22826" lon="6.51986">
        <ele>1202.2421875</ele>
        <time>2021-08-22T15:45:54Z</time>
      </trkpt>
      <trkpt lat="46.22826" lon="6.51986">
        <ele>1202.55859375</ele>
        <time>2021-08-22T15:46:20Z</time>
      </trkpt>
      <trkpt lat="46.22827" lon="6.51978">
        <ele>1198.34375</ele>
        <time>2021-08-22T15:46:40Z</time>
      </trkpt>
      <trkpt lat="46.22829" lon="6.51985">
        <ele>1201.30078125</ele>
        <time>2021-08-22T15:47:03Z</time>
      </trkpt>
      <trkpt lat="46.22818" lon="6.51982">
        <ele>1202.828125</ele>
        <time>2021-08-22T15:47:09Z</time>
      </trkpt>
      <trkpt lat="46.22815" lon="6.51981">
        <ele>1203.03515625</ele>
        <time>2021-08-22T15:47:10Z</time>
      </trkpt>
      <trkpt lat="46.22814" lon="6.5198">
        <ele>1203.0078125</ele>
        <time>2021-08-22T15:47:11Z</time>
      </trkpt>
      <trkpt lat="46.22812" lon="6.51978">
        <ele>1202.69140625</ele>
        <time>2021-08-22T15:47:12Z</time>
      </trkpt>
      <trkpt lat="46.2281" lon="6.51976">
        <ele>1202.19140625</ele>
        <time>2021-08-22T15:47:13Z</time>
      </trkpt>
      <trkpt lat="46.22809" lon="6.51973">
        <ele>1201.3359375</ele>
        <time>2021-08-22T15:47:14Z</time>
      </trkpt>
      <trkpt lat="46.22807" lon="6.51969">
        <ele>1200.24609375</ele>
        <time>2021-08-22T15:47:15Z</time>
      </trkpt>
      <trkpt lat="46.22804" lon="6.51957">
        <ele>1195.2109375</ele>
        <time>2021-08-22T15:47:18Z</time>
      </trkpt>
      <trkpt lat="46.22806" lon="6.51955">
        <ele>1193.49609375</ele>
        <time>2021-08-22T15:47:19Z</time>
      </trkpt>
      <trkpt lat="46.22809" lon="6.51953">
        <ele>1191.7265625</ele>
        <time>2021-08-22T15:47:20Z</time>
      </trkpt>
      <trkpt lat="46.2282" lon="6.51948">
        <ele>1185.35546875</ele>
        <time>2021-08-22T15:47:24Z</time>
      </trkpt>
      <trkpt lat="46.22822" lon="6.51947">
        <ele>1184.08203125</ele>
        <time>2021-08-22T15:47:25Z</time>
      </trkpt>
      <trkpt lat="46.22834" lon="6.51948">
        <ele>1181.3984375</ele>
        <time>2021-08-22T15:47:29Z</time>
      </trkpt>
      <trkpt lat="46.2284" lon="6.51947">
        <ele>1179.38671875</ele>
        <time>2021-08-22T15:47:33Z</time>
      </trkpt>
      <trkpt lat="46.22841" lon="6.51948">
        <ele>1179.78515625</ele>
        <time>2021-08-22T15:47:34Z</time>
      </trkpt>
      <trkpt lat="46.22843" lon="6.51949">
        <ele>1179.87890625</ele>
        <time>2021-08-22T15:47:35Z</time>
      </trkpt>
      <trkpt lat="46.22846" lon="6.5195">
        <ele>1179.52734375</ele>
        <time>2021-08-22T15:47:36Z</time>
      </trkpt>
      <trkpt lat="46.22848" lon="6.5195">
        <ele>1178.82421875</ele>
        <time>2021-08-22T15:47:37Z</time>
      </trkpt>
      <trkpt lat="46.2285" lon="6.51949">
        <ele>1178.09765625</ele>
        <time>2021-08-22T15:47:38Z</time>
      </trkpt>
      <trkpt lat="46.22851" lon="6.51949">
        <ele>1177.71875</ele>
        <time>2021-08-22T15:47:39Z</time>
      </trkpt>
      <trkpt lat="46.22854" lon="6.51949">
        <ele>1177.2265625</ele>
        <time>2021-08-22T15:47:40Z</time>
      </trkpt>
      <trkpt lat="46.22865" lon="6.51946">
        <ele>1173.328125</ele>
        <time>2021-08-22T15:47:43Z</time>
      </trkpt>
      <trkpt lat="46.22876" lon="6.51941">
        <ele>1167.91796875</ele>
        <time>2021-08-22T15:47:46Z</time>
      </trkpt>
      <trkpt lat="46.2288" lon="6.5194">
        <ele>1167.08984375</ele>
        <time>2021-08-22T15:47:47Z</time>
      </trkpt>
      <trkpt lat="46.22885" lon="6.51942">
        <ele>1167.12890625</ele>
        <time>2021-08-22T15:47:48Z</time>
      </trkpt>
      <trkpt lat="46.22889" lon="6.51942">
        <ele>1166.890625</ele>
        <time>2021-08-22T15:47:49Z</time>
      </trkpt>
      <trkpt lat="46.22894" lon="6.51942">
        <ele>1166.23046875</ele>
        <time>2021-08-22T15:47:50Z</time>
      </trkpt>
      <trkpt lat="46.22899" lon="6.51942">
        <ele>1165.45703125</ele>
        <time>2021-08-22T15:47:51Z</time>
      </trkpt>
      <trkpt lat="46.22929" lon="6.51946">
        <ele>1162.48828125</ele>
        <time>2021-08-22T15:47:56Z</time>
      </trkpt>
      <trkpt lat="46.22933" lon="6.51948">
        <ele>1162.6484375</ele>
        <time>2021-08-22T15:47:57Z</time>
      </trkpt>
      <trkpt lat="46.22935" lon="6.51951">
        <ele>1163.59375</ele>
        <time>2021-08-22T15:47:58Z</time>
      </trkpt>
      <trkpt lat="46.22948" lon="6.51966">
        <ele>1166.9453125</ele>
        <time>2021-08-22T15:48:04Z</time>
      </trkpt>
      <trkpt lat="46.22951" lon="6.51967">
        <ele>1166.94921875</ele>
        <time>2021-08-22T15:48:05Z</time>
      </trkpt>
      <trkpt lat="46.22954" lon="6.51969">
        <ele>1166.94921875</ele>
        <time>2021-08-22T15:48:06Z</time>
      </trkpt>
      <trkpt lat="46.22959" lon="6.5197">
        <ele>1166.33984375</ele>
        <time>2021-08-22T15:48:07Z</time>
      </trkpt>
      <trkpt lat="46.22964" lon="6.51971">
        <ele>1165.17578125</ele>
        <time>2021-08-22T15:48:08Z</time>
      </trkpt>
      <trkpt lat="46.22971" lon="6.51972">
        <ele>1163.41015625</ele>
        <time>2021-08-22T15:48:09Z</time>
      </trkpt>
      <trkpt lat="46.22978" lon="6.51972">
        <ele>1161.31640625</ele>
        <time>2021-08-22T15:48:10Z</time>
      </trkpt>
      <trkpt lat="46.22985" lon="6.51972">
        <ele>1159.2109375</ele>
        <time>2021-08-22T15:48:11Z</time>
      </trkpt>
      <trkpt lat="46.22992" lon="6.51974">
        <ele>1157.61328125</ele>
        <time>2021-08-22T15:48:12Z</time>
      </trkpt>
      <trkpt lat="46.22999" lon="6.51977">
        <ele>1156.6875</ele>
        <time>2021-08-22T15:48:13Z</time>
      </trkpt>
      <trkpt lat="46.23005" lon="6.5198">
        <ele>1155.96875</ele>
        <time>2021-08-22T15:48:14Z</time>
      </trkpt>
      <trkpt lat="46.23017" lon="6.51988">
        <ele>1154.73828125</ele>
        <time>2021-08-22T15:48:16Z</time>
      </trkpt>
      <trkpt lat="46.23022" lon="6.51993">
        <ele>1155.12109375</ele>
        <time>2021-08-22T15:48:17Z</time>
      </trkpt>
      <trkpt lat="46.2304" lon="6.52013">
        <ele>1155.59375</ele>
        <time>2021-08-22T15:48:21Z</time>
      </trkpt>
      <trkpt lat="46.23056" lon="6.52028">
        <ele>1155.15625</ele>
        <time>2021-08-22T15:48:24Z</time>
      </trkpt>
      <trkpt lat="46.23061" lon="6.52033">
        <ele>1154.94921875</ele>
        <time>2021-08-22T15:48:25Z</time>
      </trkpt>
      <trkpt lat="46.23083" lon="6.52049">
        <ele>1151.48828125</ele>
        <time>2021-08-22T15:48:29Z</time>
      </trkpt>
      <trkpt lat="46.23093" lon="6.52054">
        <ele>1149.8359375</ele>
        <time>2021-08-22T15:48:31Z</time>
      </trkpt>
      <trkpt lat="46.23097" lon="6.52055">
        <ele>1148.78515625</ele>
        <time>2021-08-22T15:48:32Z</time>
      </trkpt>
      <trkpt lat="46.23108" lon="6.52061">
        <ele>1146.8671875</ele>
        <time>2021-08-22T15:48:34Z</time>
      </trkpt>
      <trkpt lat="46.23113" lon="6.52065">
        <ele>1146.578125</ele>
        <time>2021-08-22T15:48:35Z</time>
      </trkpt>
      <trkpt lat="46.23126" lon="6.52075">
        <ele>1144.671875</ele>
        <time>2021-08-22T15:48:38Z</time>
      </trkpt>
      <trkpt lat="46.23131" lon="6.52077">
        <ele>1143.48828125</ele>
        <time>2021-08-22T15:48:39Z</time>
      </trkpt>
      <trkpt lat="46.23135" lon="6.52079">
        <ele>1142.03125</ele>
        <time>2021-08-22T15:48:40Z</time>
      </trkpt>
      <trkpt lat="46.23147" lon="6.5208">
        <ele>1137.66796875</ele>
        <time>2021-08-22T15:48:44Z</time>
      </trkpt>
      <trkpt lat="46.23161" lon="6.52081">
        <ele>1132.42578125</ele>
        <time>2021-08-22T15:48:48Z</time>
      </trkpt>
      <trkpt lat="46.23173" lon="6.52086">
        <ele>1128.22265625</ele>
        <time>2021-08-22T15:48:52Z</time>
      </trkpt>
      <trkpt lat="46.23178" lon="6.52089">
        <ele>1126.80078125</ele>
        <time>2021-08-22T15:48:54Z</time>
      </trkpt>
      <trkpt lat="46.23181" lon="6.5209">
        <ele>1125.58984375</ele>
        <time>2021-08-22T15:48:55Z</time>
      </trkpt>
      <trkpt lat="46.23184" lon="6.52091">
        <ele>1124.53125</ele>
        <time>2021-08-22T15:48:56Z</time>
      </trkpt>
      <trkpt lat="46.23186" lon="6.52091">
        <ele>1123.671875</ele>
        <time>2021-08-22T15:48:57Z</time>
      </trkpt>
      <trkpt lat="46.23188" lon="6.52091">
        <ele>1122.91796875</ele>
        <time>2021-08-22T15:48:58Z</time>
      </trkpt>
      <trkpt lat="46.23191" lon="6.5209">
        <ele>1121.94921875</ele>
        <time>2021-08-22T15:48:59Z</time>
      </trkpt>
      <trkpt lat="46.23194" lon="6.52091">
        <ele>1121.01953125</ele>
        <time>2021-08-22T15:49:00Z</time>
      </trkpt>
      <trkpt lat="46.23197" lon="6.52093">
        <ele>1120.234375</ele>
        <time>2021-08-22T15:49:01Z</time>
      </trkpt>
      <trkpt lat="46.232" lon="6.52095">
        <ele>1119.06640625</ele>
        <time>2021-08-22T15:49:02Z</time>
      </trkpt>
      <trkpt lat="46.23221" lon="6.52104">
        <ele>1113.2109375</ele>
        <time>2021-08-22T15:49:07Z</time>
      </trkpt>
      <trkpt lat="46.23236" lon="6.52106">
        <ele>1108.37890625</ele>
        <time>2021-08-22T15:49:10Z</time>
      </trkpt>
      <trkpt lat="46.23248" lon="6.5211">
        <ele>1105.859375</ele>
        <time>2021-08-22T15:49:13Z</time>
      </trkpt>
      <trkpt lat="46.23252" lon="6.52112">
        <ele>1104.9765625</ele>
        <time>2021-08-22T15:49:14Z</time>
      </trkpt>
      <trkpt lat="46.23262" lon="6.52117">
        <ele>1102.87109375</ele>
        <time>2021-08-22T15:49:16Z</time>
      </trkpt>
      <trkpt lat="46.23266" lon="6.52121">
        <ele>1102.0625</ele>
        <time>2021-08-22T15:49:17Z</time>
      </trkpt>
      <trkpt lat="46.2327" lon="6.52126">
        <ele>1101.46875</ele>
        <time>2021-08-22T15:49:18Z</time>
      </trkpt>
      <trkpt lat="46.23274" lon="6.5213">
        <ele>1100.7734375</ele>
        <time>2021-08-22T15:49:19Z</time>
      </trkpt>
      <trkpt lat="46.23277" lon="6.52132">
        <ele>1099.9765625</ele>
        <time>2021-08-22T15:49:20Z</time>
      </trkpt>
      <trkpt lat="46.23279" lon="6.52131">
        <ele>1099.50390625</ele>
        <time>2021-08-22T15:49:21Z</time>
      </trkpt>
      <trkpt lat="46.23285" lon="6.52135">
        <ele>1098.234375</ele>
        <time>2021-08-22T15:49:22Z</time>
      </trkpt>
      <trkpt lat="46.2329" lon="6.5214">
        <ele>1096.875</ele>
        <time>2021-08-22T15:49:23Z</time>
      </trkpt>
      <trkpt lat="46.23311" lon="6.52157">
        <ele>1091.03515625</ele>
        <time>2021-08-22T15:49:26Z</time>
      </trkpt>
      <trkpt lat="46.23332" lon="6.52171">
        <ele>1085.2421875</ele>
        <time>2021-08-22T15:49:29Z</time>
      </trkpt>
      <trkpt lat="46.23356" lon="6.52187">
        <ele>1077.515625</ele>
        <time>2021-08-22T15:49:32Z</time>
      </trkpt>
      <trkpt lat="46.23363" lon="6.52193">
        <ele>1075.23046875</ele>
        <time>2021-08-22T15:49:33Z</time>
      </trkpt>
      <trkpt lat="46.23379" lon="6.5221">
        <ele>1068.98828125</ele>
        <time>2021-08-22T15:49:36Z</time>
      </trkpt>
      <trkpt lat="46.23394" lon="6.52227">
        <ele>1063.6796875</ele>
        <time>2021-08-22T15:49:39Z</time>
      </trkpt>
      <trkpt lat="46.23398" lon="6.52231">
        <ele>1061.79296875</ele>
        <time>2021-08-22T15:49:40Z</time>
      </trkpt>
      <trkpt lat="46.23409" lon="6.52241">
        <ele>1057.28125</ele>
        <time>2021-08-22T15:49:43Z</time>
      </trkpt>
      <trkpt lat="46.23419" lon="6.52249">
        <ele>1054.1015625</ele>
        <time>2021-08-22T15:49:45Z</time>
      </trkpt>
      <trkpt lat="46.23423" lon="6.52251">
        <ele>1052.640625</ele>
        <time>2021-08-22T15:49:46Z</time>
      </trkpt>
      <trkpt lat="46.23437" lon="6.52257">
        <ele>1048.28515625</ele>
        <time>2021-08-22T15:49:49Z</time>
      </trkpt>
      <trkpt lat="46.23438" lon="6.52264">
        <ele>1048.390625</ele>
        <time>2021-08-22T15:49:55Z</time>
      </trkpt>
      <trkpt lat="46.23432" lon="6.52268">
        <ele>1050.24609375</ele>
        <time>2021-08-22T15:50:12Z</time>
      </trkpt>
      <trkpt lat="46.23445" lon="6.52269">
        <ele>1046.9296875</ele>
        <time>2021-08-22T15:50:20Z</time>
      </trkpt>
      <trkpt lat="46.23457" lon="6.52273">
        <ele>1044.05078125</ele>
        <time>2021-08-22T15:50:23Z</time>
      </trkpt>
      <trkpt lat="46.23462" lon="6.52274">
        <ele>1043.01171875</ele>
        <time>2021-08-22T15:50:24Z</time>
      </trkpt>
      <trkpt lat="46.23466" lon="6.52276">
        <ele>1042.1796875</ele>
        <time>2021-08-22T15:50:25Z</time>
      </trkpt>
      <trkpt lat="46.23471" lon="6.52278">
        <ele>1041.38671875</ele>
        <time>2021-08-22T15:50:26Z</time>
      </trkpt>
      <trkpt lat="46.23476" lon="6.52279">
        <ele>1040.46484375</ele>
        <time>2021-08-22T15:50:27Z</time>
      </trkpt>
      <trkpt lat="46.23481" lon="6.52282">
        <ele>1039.4453125</ele>
        <time>2021-08-22T15:50:28Z</time>
      </trkpt>
      <trkpt lat="46.23487" lon="6.52287">
        <ele>1038.3046875</ele>
        <time>2021-08-22T15:50:29Z</time>
      </trkpt>
      <trkpt lat="46.23493" lon="6.52294">
        <ele>1037.515625</ele>
        <time>2021-08-22T15:50:30Z</time>
      </trkpt>
      <trkpt lat="46.23499" lon="6.52302">
        <ele>1036.8046875</ele>
        <time>2021-08-22T15:50:31Z</time>
      </trkpt>
      <trkpt lat="46.23505" lon="6.52311">
        <ele>1035.9375</ele>
        <time>2021-08-22T15:50:32Z</time>
      </trkpt>
      <trkpt lat="46.2351" lon="6.5232">
        <ele>1035.05859375</ele>
        <time>2021-08-22T15:50:33Z</time>
      </trkpt>
      <trkpt lat="46.23514" lon="6.52329">
        <ele>1034.13671875</ele>
        <time>2021-08-22T15:50:34Z</time>
      </trkpt>
      <trkpt lat="46.23522" lon="6.52343">
        <ele>1033.1640625</ele>
        <time>2021-08-22T15:50:36Z</time>
      </trkpt>
      <trkpt lat="46.23525" lon="6.52347">
        <ele>1032.87890625</ele>
        <time>2021-08-22T15:50:37Z</time>
      </trkpt>
      <trkpt lat="46.23528" lon="6.52351">
        <ele>1032.65234375</ele>
        <time>2021-08-22T15:50:38Z</time>
      </trkpt>
      <trkpt lat="46.23531" lon="6.52354">
        <ele>1032.3515625</ele>
        <time>2021-08-22T15:50:40Z</time>
      </trkpt>
      <trkpt lat="46.23532" lon="6.52354">
        <ele>1032.34765625</ele>
        <time>2021-08-22T15:50:41Z</time>
      </trkpt>
      <trkpt lat="46.23533" lon="6.52352">
        <ele>1032.38671875</ele>
        <time>2021-08-22T15:50:42Z</time>
      </trkpt>
      <trkpt lat="46.23534" lon="6.52351">
        <ele>1032.4140625</ele>
        <time>2021-08-22T15:50:43Z</time>
      </trkpt>
      <trkpt lat="46.23532" lon="6.52349">
        <ele>1032.58203125</ele>
        <time>2021-08-22T15:50:44Z</time>
      </trkpt>
      <trkpt lat="46.2353" lon="6.52346">
        <ele>1032.765625</ele>
        <time>2021-08-22T15:50:45Z</time>
      </trkpt>
      <trkpt lat="46.23527" lon="6.52343">
        <ele>1032.95703125</ele>
        <time>2021-08-22T15:50:46Z</time>
      </trkpt>
      <trkpt lat="46.23526" lon="6.52339">
        <ele>1033.14453125</ele>
        <time>2021-08-22T15:50:47Z</time>
      </trkpt>
      <trkpt lat="46.23524" lon="6.52336">
        <ele>1033.33203125</ele>
        <time>2021-08-22T15:50:48Z</time>
      </trkpt>
      <trkpt lat="46.23522" lon="6.52332">
        <ele>1033.51953125</ele>
        <time>2021-08-22T15:50:49Z</time>
      </trkpt>
      <trkpt lat="46.23506" lon="6.5227">
        <ele>1036.0625</ele>
        <time>2021-08-22T15:51:00Z</time>
      </trkpt>
      <trkpt lat="46.23511" lon="6.52146">
        <ele>1035.21875</ele>
        <time>2021-08-22T15:51:15Z</time>
      </trkpt>
      <trkpt lat="46.23518" lon="6.52018">
        <ele>1036.7578125</ele>
        <time>2021-08-22T15:51:31Z</time>
      </trkpt>
      <trkpt lat="46.23518" lon="6.51998">
        <ele>1036.6875</ele>
        <time>2021-08-22T15:51:37Z</time>
      </trkpt>
      <trkpt lat="46.23516" lon="6.51996">
        <ele>1037.0390625</ele>
        <time>2021-08-22T15:51:38Z</time>
      </trkpt>
      <trkpt lat="46.23513" lon="6.51994">
        <ele>1037.8984375</ele>
        <time>2021-08-22T15:51:39Z</time>
      </trkpt>
      <trkpt lat="46.23511" lon="6.51996">
        <ele>1038.84375</ele>
        <time>2021-08-22T15:51:40Z</time>
      </trkpt>
      <trkpt lat="46.23508" lon="6.52">
        <ele>1039.7890625</ele>
        <time>2021-08-22T15:51:41Z</time>
      </trkpt>
      <trkpt lat="46.23505" lon="6.52004">
        <ele>1040.7109375</ele>
        <time>2021-08-22T15:51:42Z</time>
      </trkpt>
      <trkpt lat="46.23487" lon="6.52023">
        <ele>1046.54296875</ele>
        <time>2021-08-22T15:51:50Z</time>
      </trkpt>
      <trkpt lat="46.2348" lon="6.52019">
        <ele>1050.51953125</ele>
        <time>2021-08-22T15:51:54Z</time>
      </trkpt>
      <trkpt lat="46.23476" lon="6.52016">
        <ele>1052.61328125</ele>
        <time>2021-08-22T15:52:07Z</time>
      </trkpt>
      <trkpt lat="46.23476" lon="6.52016">
        <ele>1052.4609375</ele>
        <time>2021-08-22T15:52:08Z</time>
      </trkpt>
      <trkpt lat="46.23492" lon="6.5202">
        <ele>1044.8828125</ele>
        <time>2021-08-22T15:52:15Z</time>
      </trkpt>
      <trkpt lat="46.23498" lon="6.52015">
        <ele>1042.9140625</ele>
        <time>2021-08-22T15:52:17Z</time>
      </trkpt>
      <trkpt lat="46.235" lon="6.52011">
        <ele>1042.2109375</ele>
        <time>2021-08-22T15:52:18Z</time>
      </trkpt>
      <trkpt lat="46.23505" lon="6.5199">
        <ele>1040.6875</ele>
        <time>2021-08-22T15:52:25Z</time>
      </trkpt>
      <trkpt lat="46.23512" lon="6.51962">
        <ele>1037.90625</ele>
        <time>2021-08-22T15:52:31Z</time>
      </trkpt>
      <trkpt lat="46.23512" lon="6.51956">
        <ele>1037.11328125</ele>
        <time>2021-08-22T15:52:32Z</time>
      </trkpt>
      <trkpt lat="46.23512" lon="6.5195">
        <ele>1036.43359375</ele>
        <time>2021-08-22T15:52:33Z</time>
      </trkpt>
      <trkpt lat="46.23511" lon="6.51944">
        <ele>1035.8359375</ele>
        <time>2021-08-22T15:52:34Z</time>
      </trkpt>
      <trkpt lat="46.23511" lon="6.51938">
        <ele>1035.23828125</ele>
        <time>2021-08-22T15:52:35Z</time>
      </trkpt>
      <trkpt lat="46.23511" lon="6.51933">
        <ele>1034.5625</ele>
        <time>2021-08-22T15:52:36Z</time>
      </trkpt>
      <trkpt lat="46.23512" lon="6.51929">
        <ele>1034.0390625</ele>
        <time>2021-08-22T15:52:37Z</time>
      </trkpt>
      <trkpt lat="46.23513" lon="6.51927">
        <ele>1033.59765625</ele>
        <time>2021-08-22T15:52:38Z</time>
      </trkpt>
      <trkpt lat="46.23514" lon="6.51925">
        <ele>1033.125</ele>
        <time>2021-08-22T15:52:39Z</time>
      </trkpt>
      <trkpt lat="46.23516" lon="6.51923">
        <ele>1032.6171875</ele>
        <time>2021-08-22T15:52:40Z</time>
      </trkpt>
      <trkpt lat="46.23519" lon="6.5192">
        <ele>1031.96484375</ele>
        <time>2021-08-22T15:52:41Z</time>
      </trkpt>
      <trkpt lat="46.23521" lon="6.51916">
        <ele>1031.26171875</ele>
        <time>2021-08-22T15:52:42Z</time>
      </trkpt>
      <trkpt lat="46.23523" lon="6.51911">
        <ele>1030.51171875</ele>
        <time>2021-08-22T15:52:43Z</time>
      </trkpt>
      <trkpt lat="46.23529" lon="6.51903">
        <ele>1028.69921875</ele>
        <time>2021-08-22T15:52:45Z</time>
      </trkpt>
      <trkpt lat="46.23545" lon="6.51891">
        <ele>1025.4453125</ele>
        <time>2021-08-22T15:52:50Z</time>
      </trkpt>
      <trkpt lat="46.23571" lon="6.51883">
        <ele>1023.3984375</ele>
        <time>2021-08-22T15:52:55Z</time>
      </trkpt>
      <trkpt lat="46.23582" lon="6.51879">
        <ele>1022.3984375</ele>
        <time>2021-08-22T15:52:57Z</time>
      </trkpt>
      <trkpt lat="46.23591" lon="6.51877">
        <ele>1021.67578125</ele>
        <time>2021-08-22T15:52:59Z</time>
      </trkpt>
      <trkpt lat="46.23594" lon="6.51875">
        <ele>1021.2109375</ele>
        <time>2021-08-22T15:53:00Z</time>
      </trkpt>
      <trkpt lat="46.23595" lon="6.51872">
        <ele>1020.5859375</ele>
        <time>2021-08-22T15:53:01Z</time>
      </trkpt>
      <trkpt lat="46.23597" lon="6.51868">
        <ele>1019.8203125</ele>
        <time>2021-08-22T15:53:02Z</time>
      </trkpt>
      <trkpt lat="46.23598" lon="6.51864">
        <ele>1019.0234375</ele>
        <time>2021-08-22T15:53:03Z</time>
      </trkpt>
      <trkpt lat="46.23598" lon="6.5186">
        <ele>1018.23828125</ele>
        <time>2021-08-22T15:53:04Z</time>
      </trkpt>
      <trkpt lat="46.23597" lon="6.51852">
        <ele>1016.80078125</ele>
        <time>2021-08-22T15:53:07Z</time>
      </trkpt>
      <trkpt lat="46.23598" lon="6.51839">
        <ele>1014.0546875</ele>
        <time>2021-08-22T15:53:12Z</time>
      </trkpt>
      <trkpt lat="46.23598" lon="6.51836">
        <ele>1013.1875</ele>
        <time>2021-08-22T15:53:14Z</time>
      </trkpt>
      <trkpt lat="46.23605" lon="6.51823">
        <ele>1011.25</ele>
        <time>2021-08-22T15:53:20Z</time>
      </trkpt>
      <trkpt lat="46.23608" lon="6.51817">
        <ele>1010.6015625</ele>
        <time>2021-08-22T15:53:24Z</time>
      </trkpt>
      <trkpt lat="46.23601" lon="6.51809">
        <ele>1008.44921875</ele>
        <time>2021-08-22T15:53:29Z</time>
      </trkpt>
      <trkpt lat="46.236" lon="6.51809">
        <ele>1008.171875</ele>
        <time>2021-08-22T15:53:30Z</time>
      </trkpt>
      <trkpt lat="46.23595" lon="6.51809">
        <ele>1007.47265625</ele>
        <time>2021-08-22T15:53:34Z</time>
      </trkpt>
      <trkpt lat="46.23585" lon="6.51805">
        <ele>1005.15234375</ele>
        <time>2021-08-22T15:53:41Z</time>
      </trkpt>
      <trkpt lat="46.23573" lon="6.51802">
        <ele>1002.60546875</ele>
        <time>2021-08-22T15:53:46Z</time>
      </trkpt>
      <trkpt lat="46.23562" lon="6.51801">
        <ele>1001.890625</ele>
        <time>2021-08-22T15:53:50Z</time>
      </trkpt>
      <trkpt lat="46.23553" lon="6.51799">
        <ele>1000.98828125</ele>
        <time>2021-08-22T15:53:52Z</time>
      </trkpt>
      <trkpt lat="46.23551" lon="6.51797">
        <ele>1000.13671875</ele>
        <time>2021-08-22T15:53:53Z</time>
      </trkpt>
      <trkpt lat="46.23551" lon="6.51795">
        <ele>999.25</ele>
        <time>2021-08-22T15:53:54Z</time>
      </trkpt>
      <trkpt lat="46.23557" lon="6.5178">
        <ele>993.71875</ele>
        <time>2021-08-22T15:53:59Z</time>
      </trkpt>
      <trkpt lat="46.23558" lon="6.51779">
        <ele>993.5703125</ele>
        <time>2021-08-22T15:54:01Z</time>
      </trkpt>
      <trkpt lat="46.23563" lon="6.51774">
        <ele>992.3828125</ele>
        <time>2021-08-22T15:54:13Z</time>
      </trkpt>
      <trkpt lat="46.23564" lon="6.51771">
        <ele>991.3671875</ele>
        <time>2021-08-22T15:54:17Z</time>
      </trkpt>
      <trkpt lat="46.23564" lon="6.51766">
        <ele>989.640625</ele>
        <time>2021-08-22T15:54:28Z</time>
      </trkpt>
      <trkpt lat="46.23558" lon="6.51762">
        <ele>987.59375</ele>
        <time>2021-08-22T15:54:33Z</time>
      </trkpt>
      <trkpt lat="46.23555" lon="6.51759">
        <ele>986.1328125</ele>
        <time>2021-08-22T15:54:35Z</time>
      </trkpt>
      <trkpt lat="46.23552" lon="6.5176">
        <ele>985.95703125</ele>
        <time>2021-08-22T15:54:36Z</time>
      </trkpt>
      <trkpt lat="46.2355" lon="6.5176">
        <ele>985.65234375</ele>
        <time>2021-08-22T15:54:37Z</time>
      </trkpt>
      <trkpt lat="46.23547" lon="6.5176">
        <ele>985.515625</ele>
        <time>2021-08-22T15:54:38Z</time>
      </trkpt>
      <trkpt lat="46.23545" lon="6.51762">
        <ele>985.52734375</ele>
        <time>2021-08-22T15:54:40Z</time>
      </trkpt>
      <trkpt lat="46.2354" lon="6.51765">
        <ele>986.48046875</ele>
        <time>2021-08-22T15:54:53Z</time>
      </trkpt>
      <trkpt lat="46.23538" lon="6.51769">
        <ele>987.76171875</ele>
        <time>2021-08-22T15:55:03Z</time>
      </trkpt>
      <trkpt lat="46.23536" lon="6.5177">
        <ele>987.97265625</ele>
        <time>2021-08-22T15:55:05Z</time>
      </trkpt>
      <trkpt lat="46.23534" lon="6.51771">
        <ele>988.18359375</ele>
        <time>2021-08-22T15:55:07Z</time>
      </trkpt>
      <trkpt lat="46.23531" lon="6.51771">
        <ele>988.24609375</ele>
        <time>2021-08-22T15:55:10Z</time>
      </trkpt>
      <trkpt lat="46.23529" lon="6.51771">
        <ele>987.99609375</ele>
        <time>2021-08-22T15:55:11Z</time>
      </trkpt>
      <trkpt lat="46.23527" lon="6.5177">
        <ele>987.59375</ele>
        <time>2021-08-22T15:55:12Z</time>
      </trkpt>
      <trkpt lat="46.23526" lon="6.5177">
        <ele>987.48046875</ele>
        <time>2021-08-22T15:55:13Z</time>
      </trkpt>
      <trkpt lat="46.23525" lon="6.5177">
        <ele>987.70703125</ele>
        <time>2021-08-22T15:55:14Z</time>
      </trkpt>
      <trkpt lat="46.23522" lon="6.51774">
        <ele>989.21875</ele>
        <time>2021-08-22T15:55:25Z</time>
      </trkpt>
      <trkpt lat="46.23513" lon="6.51775">
        <ele>989.9296875</ele>
        <time>2021-08-22T15:55:41Z</time>
      </trkpt>
      <trkpt lat="46.23507" lon="6.51766">
        <ele>986.69140625</ele>
        <time>2021-08-22T15:55:52Z</time>
      </trkpt>
      <trkpt lat="46.23505" lon="6.51758">
        <ele>983.796875</ele>
        <time>2021-08-22T15:56:02Z</time>
      </trkpt>
      <trkpt lat="46.235" lon="6.51742">
        <ele>978.4296875</ele>
        <time>2021-08-22T15:56:08Z</time>
      </trkpt>
      <trkpt lat="46.23498" lon="6.5174">
        <ele>977.71875</ele>
        <time>2021-08-22T15:56:10Z</time>
      </trkpt>
      <trkpt lat="46.23498" lon="6.51738">
        <ele>977.27734375</ele>
        <time>2021-08-22T15:56:11Z</time>
      </trkpt>
      <trkpt lat="46.23493" lon="6.51739">
        <ele>977.734375</ele>
        <time>2021-08-22T15:56:17Z</time>
      </trkpt>
      <trkpt lat="46.23491" lon="6.51739">
        <ele>977.79296875</ele>
        <time>2021-08-22T15:56:18Z</time>
      </trkpt>
      <trkpt lat="46.23474" lon="6.51736">
        <ele>979.1875</ele>
        <time>2021-08-22T15:56:29Z</time>
      </trkpt>
      <trkpt lat="46.23466" lon="6.51731">
        <ele>978.5859375</ele>
        <time>2021-08-22T15:56:39Z</time>
      </trkpt>
      <trkpt lat="46.23464" lon="6.5173">
        <ele>978.234375</ele>
        <time>2021-08-22T15:56:40Z</time>
      </trkpt>
      <trkpt lat="46.23462" lon="6.51728">
        <ele>977.6640625</ele>
        <time>2021-08-22T15:56:41Z</time>
      </trkpt>
      <trkpt lat="46.23459" lon="6.51724">
        <ele>976.91796875</ele>
        <time>2021-08-22T15:56:42Z</time>
      </trkpt>
      <trkpt lat="46.23456" lon="6.51721">
        <ele>976.28515625</ele>
        <time>2021-08-22T15:56:43Z</time>
      </trkpt>
      <trkpt lat="46.23452" lon="6.51718">
        <ele>975.79296875</ele>
        <time>2021-08-22T15:56:44Z</time>
      </trkpt>
      <trkpt lat="46.23447" lon="6.51716">
        <ele>975.609375</ele>
        <time>2021-08-22T15:56:45Z</time>
      </trkpt>
      <trkpt lat="46.23443" lon="6.51714">
        <ele>975.6953125</ele>
        <time>2021-08-22T15:56:46Z</time>
      </trkpt>
      <trkpt lat="46.23439" lon="6.51713">
        <ele>975.91015625</ele>
        <time>2021-08-22T15:56:47Z</time>
      </trkpt>
      <trkpt lat="46.23435" lon="6.51712">
        <ele>976.0390625</ele>
        <time>2021-08-22T15:56:48Z</time>
      </trkpt>
      <trkpt lat="46.2343" lon="6.5171">
        <ele>975.89453125</ele>
        <time>2021-08-22T15:56:49Z</time>
      </trkpt>
      <trkpt lat="46.23426" lon="6.51707">
        <ele>975.3359375</ele>
        <time>2021-08-22T15:56:50Z</time>
      </trkpt>
      <trkpt lat="46.23403" lon="6.51692">
        <ele>972.62109375</ele>
        <time>2021-08-22T15:56:55Z</time>
      </trkpt>
      <trkpt lat="46.23392" lon="6.51687">
        <ele>971.4609375</ele>
        <time>2021-08-22T15:56:58Z</time>
      </trkpt>
      <trkpt lat="46.2339" lon="6.51686">
        <ele>970.859375</ele>
        <time>2021-08-22T15:56:59Z</time>
      </trkpt>
      <trkpt lat="46.23389" lon="6.51684">
        <ele>970.53125</ele>
        <time>2021-08-22T15:57:00Z</time>
      </trkpt>
      <trkpt lat="46.23386" lon="6.51684">
        <ele>970.4296875</ele>
        <time>2021-08-22T15:57:01Z</time>
      </trkpt>
      <trkpt lat="46.23384" lon="6.51682">
        <ele>970.171875</ele>
        <time>2021-08-22T15:57:02Z</time>
      </trkpt>
      <trkpt lat="46.23381" lon="6.51681">
        <ele>969.80078125</ele>
        <time>2021-08-22T15:57:03Z</time>
      </trkpt>
      <trkpt lat="46.23378" lon="6.5168">
        <ele>969.55859375</ele>
        <time>2021-08-22T15:57:04Z</time>
      </trkpt>
      <trkpt lat="46.23369" lon="6.51674">
        <ele>967.8515625</ele>
        <time>2021-08-22T15:57:06Z</time>
      </trkpt>
      <trkpt lat="46.23335" lon="6.51649">
        <ele>961.42578125</ele>
        <time>2021-08-22T15:57:12Z</time>
      </trkpt>
      <trkpt lat="46.23299" lon="6.51617">
        <ele>954.62890625</ele>
        <time>2021-08-22T15:57:22Z</time>
      </trkpt>
      <trkpt lat="46.23286" lon="6.51608">
        <ele>954.46875</ele>
        <time>2021-08-22T15:57:28Z</time>
      </trkpt>
      <trkpt lat="46.23284" lon="6.51606">
        <ele>954.4296875</ele>
        <time>2021-08-22T15:57:29Z</time>
      </trkpt>
      <trkpt lat="46.23281" lon="6.51604">
        <ele>954.484375</ele>
        <time>2021-08-22T15:57:30Z</time>
      </trkpt>
      <trkpt lat="46.23278" lon="6.51601">
        <ele>954.5625</ele>
        <time>2021-08-22T15:57:31Z</time>
      </trkpt>
      <trkpt lat="46.23275" lon="6.516">
        <ele>954.91015625</ele>
        <time>2021-08-22T15:57:32Z</time>
      </trkpt>
      <trkpt lat="46.23274" lon="6.51599">
        <ele>955.0078125</ele>
        <time>2021-08-22T15:57:33Z</time>
      </trkpt>
      <trkpt lat="46.23232" lon="6.51588">
        <ele>960.58984375</ele>
        <time>2021-08-22T15:57:42Z</time>
      </trkpt>
      <trkpt lat="46.23224" lon="6.51585">
        <ele>961.546875</ele>
        <time>2021-08-22T15:57:43Z</time>
      </trkpt>
      <trkpt lat="46.23199" lon="6.51566">
        <ele>959.01953125</ele>
        <time>2021-08-22T15:57:49Z</time>
      </trkpt>
      <trkpt lat="46.2318" lon="6.51545">
        <ele>950.953125</ele>
        <time>2021-08-22T15:57:54Z</time>
      </trkpt>
      <trkpt lat="46.23151" lon="6.5153">
        <ele>951.43359375</ele>
        <time>2021-08-22T15:57:59Z</time>
      </trkpt>
      <trkpt lat="46.23133" lon="6.51519">
        <ele>953.06640625</ele>
        <time>2021-08-22T15:58:02Z</time>
      </trkpt>
      <trkpt lat="46.23127" lon="6.51515">
        <ele>953.34765625</ele>
        <time>2021-08-22T15:58:03Z</time>
      </trkpt>
      <trkpt lat="46.23101" lon="6.51496">
        <ele>953.0390625</ele>
        <time>2021-08-22T15:58:08Z</time>
      </trkpt>
      <trkpt lat="46.2309" lon="6.51492">
        <ele>954.68359375</ele>
        <time>2021-08-22T15:58:10Z</time>
      </trkpt>
      <trkpt lat="46.23081" lon="6.51488">
        <ele>956.30859375</ele>
        <time>2021-08-22T15:58:12Z</time>
      </trkpt>
      <trkpt lat="46.23074" lon="6.51487">
        <ele>958.17578125</ele>
        <time>2021-08-22T15:58:13Z</time>
      </trkpt>
      <trkpt lat="46.23069" lon="6.51485">
        <ele>959.015625</ele>
        <time>2021-08-22T15:58:14Z</time>
      </trkpt>
      <trkpt lat="46.23061" lon="6.51475">
        <ele>957.578125</ele>
        <time>2021-08-22T15:58:16Z</time>
      </trkpt>
      <trkpt lat="46.23053" lon="6.51464">
        <ele>954.765625</ele>
        <time>2021-08-22T15:58:18Z</time>
      </trkpt>
      <trkpt lat="46.23048" lon="6.5146">
        <ele>954.3671875</ele>
        <time>2021-08-22T15:58:19Z</time>
      </trkpt>
      <trkpt lat="46.23044" lon="6.51458">
        <ele>954.4453125</ele>
        <time>2021-08-22T15:58:20Z</time>
      </trkpt>
      <trkpt lat="46.23039" lon="6.51456">
        <ele>954.52734375</ele>
        <time>2021-08-22T15:58:21Z</time>
      </trkpt>
      <trkpt lat="46.22958" lon="6.5143">
        <ele>951.64453125</ele>
        <time>2021-08-22T15:58:34Z</time>
      </trkpt>
      <trkpt lat="46.22952" lon="6.51428">
        <ele>950.98046875</ele>
        <time>2021-08-22T15:58:35Z</time>
      </trkpt>
      <trkpt lat="46.22947" lon="6.51424">
        <ele>949.9375</ele>
        <time>2021-08-22T15:58:36Z</time>
      </trkpt>
      <trkpt lat="46.22938" lon="6.51415">
        <ele>947.0859375</ele>
        <time>2021-08-22T15:58:38Z</time>
      </trkpt>
      <trkpt lat="46.22929" lon="6.51405">
        <ele>944.67578125</ele>
        <time>2021-08-22T15:58:40Z</time>
      </trkpt>
      <trkpt lat="46.22891" lon="6.5139">
        <ele>945.74609375</ele>
        <time>2021-08-22T15:58:50Z</time>
      </trkpt>
      <trkpt lat="46.22864" lon="6.51378">
        <ele>945.95703125</ele>
        <time>2021-08-22T15:58:57Z</time>
      </trkpt>
      <trkpt lat="46.2286" lon="6.51376">
        <ele>945.7890625</ele>
        <time>2021-08-22T15:58:58Z</time>
      </trkpt>
      <trkpt lat="46.22853" lon="6.51369">
        <ele>945.19921875</ele>
        <time>2021-08-22T15:59:00Z</time>
      </trkpt>
      <trkpt lat="46.22823" lon="6.51323">
        <ele>938.74609375</ele>
        <time>2021-08-22T15:59:10Z</time>
      </trkpt>
      <trkpt lat="46.22816" lon="6.51309">
        <ele>937.5</ele>
        <time>2021-08-22T15:59:12Z</time>
      </trkpt>
      <trkpt lat="46.22812" lon="6.51302">
        <ele>936.87890625</ele>
        <time>2021-08-22T15:59:13Z</time>
      </trkpt>
      <trkpt lat="46.22786" lon="6.51265">
        <ele>936.9765625</ele>
        <time>2021-08-22T15:59:19Z</time>
      </trkpt>
      <trkpt lat="46.22782" lon="6.51259">
        <ele>936.81640625</ele>
        <time>2021-08-22T15:59:20Z</time>
      </trkpt>
      <trkpt lat="46.22773" lon="6.51248">
        <ele>936.8203125</ele>
        <time>2021-08-22T15:59:22Z</time>
      </trkpt>
      <trkpt lat="46.22735" lon="6.51218">
        <ele>935.09375</ele>
        <time>2021-08-22T15:59:30Z</time>
      </trkpt>
      <trkpt lat="46.22685" lon="6.51189">
        <ele>930.4140625</ele>
        <time>2021-08-22T15:59:39Z</time>
      </trkpt>
      <trkpt lat="46.22666" lon="6.51179">
        <ele>928.59375</ele>
        <time>2021-08-22T15:59:42Z</time>
      </trkpt>
      <trkpt lat="46.2263" lon="6.51162">
        <ele>926.51171875</ele>
        <time>2021-08-22T15:59:47Z</time>
      </trkpt>
      <trkpt lat="46.22622" lon="6.51157">
        <ele>926.0390625</ele>
        <time>2021-08-22T15:59:48Z</time>
      </trkpt>
      <trkpt lat="46.22608" lon="6.51147">
        <ele>925.390625</ele>
        <time>2021-08-22T15:59:50Z</time>
      </trkpt>
      <trkpt lat="46.22557" lon="6.51108">
        <ele>922.60546875</ele>
        <time>2021-08-22T15:59:58Z</time>
      </trkpt>
      <trkpt lat="46.22551" lon="6.51105">
        <ele>922.203125</ele>
        <time>2021-08-22T15:59:59Z</time>
      </trkpt>
      <trkpt lat="46.22526" lon="6.51092">
        <ele>920.53515625</ele>
        <time>2021-08-22T16:00:03Z</time>
      </trkpt>
      <trkpt lat="46.22512" lon="6.51077">
        <ele>918.19921875</ele>
        <time>2021-08-22T16:00:06Z</time>
      </trkpt>
      <trkpt lat="46.22506" lon="6.51073">
        <ele>917.92578125</ele>
        <time>2021-08-22T16:00:07Z</time>
      </trkpt>
      <trkpt lat="46.22501" lon="6.5107">
        <ele>917.7578125</ele>
        <time>2021-08-22T16:00:08Z</time>
      </trkpt>
      <trkpt lat="46.22455" lon="6.51058">
        <ele>919.703125</ele>
        <time>2021-08-22T16:00:16Z</time>
      </trkpt>
      <trkpt lat="46.22434" lon="6.51047">
        <ele>919.84375</ele>
        <time>2021-08-22T16:00:20Z</time>
      </trkpt>
      <trkpt lat="46.22429" lon="6.51042">
        <ele>919.94140625</ele>
        <time>2021-08-22T16:00:21Z</time>
      </trkpt>
      <trkpt lat="46.22424" lon="6.51037">
        <ele>919.93359375</ele>
        <time>2021-08-22T16:00:22Z</time>
      </trkpt>
      <trkpt lat="46.22419" lon="6.51033">
        <ele>920.03125</ele>
        <time>2021-08-22T16:00:23Z</time>
      </trkpt>
      <trkpt lat="46.22414" lon="6.5103">
        <ele>920.15625</ele>
        <time>2021-08-22T16:00:24Z</time>
      </trkpt>
      <trkpt lat="46.22376" lon="6.51006">
        <ele>919.03125</ele>
        <time>2021-08-22T16:00:31Z</time>
      </trkpt>
      <trkpt lat="46.22367" lon="6.50997">
        <ele>917.69921875</ele>
        <time>2021-08-22T16:00:33Z</time>
      </trkpt>
      <trkpt lat="46.22327" lon="6.50966">
        <ele>914.1953125</ele>
        <time>2021-08-22T16:00:41Z</time>
      </trkpt>
      <trkpt lat="46.22267" lon="6.50946">
        <ele>917.76171875</ele>
        <time>2021-08-22T16:00:52Z</time>
      </trkpt>
      <trkpt lat="46.22255" lon="6.50941">
        <ele>918.34375</ele>
        <time>2021-08-22T16:00:54Z</time>
      </trkpt>
      <trkpt lat="46.22217" lon="6.50917">
        <ele>919.7421875</ele>
        <time>2021-08-22T16:01:01Z</time>
      </trkpt>
      <trkpt lat="46.2219" lon="6.5091">
        <ele>921.6953125</ele>
        <time>2021-08-22T16:01:06Z</time>
      </trkpt>
      <trkpt lat="46.22168" lon="6.50907">
        <ele>924.484375</ele>
        <time>2021-08-22T16:01:10Z</time>
      </trkpt>
      <trkpt lat="46.22164" lon="6.50903">
        <ele>924.234375</ele>
        <time>2021-08-22T16:01:11Z</time>
      </trkpt>
      <trkpt lat="46.22161" lon="6.50897">
        <ele>923.43359375</ele>
        <time>2021-08-22T16:01:12Z</time>
      </trkpt>
      <trkpt lat="46.22158" lon="6.50891">
        <ele>922.1953125</ele>
        <time>2021-08-22T16:01:13Z</time>
      </trkpt>
      <trkpt lat="46.22155" lon="6.50883">
        <ele>920.75</ele>
        <time>2021-08-22T16:01:14Z</time>
      </trkpt>
      <trkpt lat="46.22115" lon="6.50823">
        <ele>917.72265625</ele>
        <time>2021-08-22T16:01:25Z</time>
      </trkpt>
      <trkpt lat="46.22067" lon="6.50777">
        <ele>915.04296875</ele>
        <time>2021-08-22T16:01:35Z</time>
      </trkpt>
      <trkpt lat="46.22019" lon="6.50719">
        <ele>914.79296875</ele>
        <time>2021-08-22T16:01:45Z</time>
      </trkpt>
      <trkpt lat="46.22004" lon="6.507">
        <ele>915.234375</ele>
        <time>2021-08-22T16:01:48Z</time>
      </trkpt>
      <trkpt lat="46.21998" lon="6.50695">
        <ele>915.19921875</ele>
        <time>2021-08-22T16:01:49Z</time>
      </trkpt>
      <trkpt lat="46.21911" lon="6.50638">
        <ele>914.4140625</ele>
        <time>2021-08-22T16:02:04Z</time>
      </trkpt>
      <trkpt lat="46.21817" lon="6.50577">
        <ele>915.21484375</ele>
        <time>2021-08-22T16:02:20Z</time>
      </trkpt>
      <trkpt lat="46.2174" lon="6.5051">
        <ele>916.12109375</ele>
        <time>2021-08-22T16:02:36Z</time>
      </trkpt>
      <trkpt lat="46.21664" lon="6.50418">
        <ele>910.74609375</ele>
        <time>2021-08-22T16:02:54Z</time>
      </trkpt>
      <trkpt lat="46.21638" lon="6.50384">
        <ele>909.765625</ele>
        <time>2021-08-22T16:03:01Z</time>
      </trkpt>
      <trkpt lat="46.21634" lon="6.50379">
        <ele>909.7578125</ele>
        <time>2021-08-22T16:03:02Z</time>
      </trkpt>
      <trkpt lat="46.2156" lon="6.50336">
        <ele>909.17578125</ele>
        <time>2021-08-22T16:03:17Z</time>
      </trkpt>
      <trkpt lat="46.21537" lon="6.5033">
        <ele>909.1015625</ele>
        <time>2021-08-22T16:03:22Z</time>
      </trkpt>
      <trkpt lat="46.21532" lon="6.5033">
        <ele>909.07421875</ele>
        <time>2021-08-22T16:03:23Z</time>
      </trkpt>
      <trkpt lat="46.21528" lon="6.5033">
        <ele>909.0546875</ele>
        <time>2021-08-22T16:03:24Z</time>
      </trkpt>
      <trkpt lat="46.21524" lon="6.50329">
        <ele>909.03125</ele>
        <time>2021-08-22T16:03:25Z</time>
      </trkpt>
      <trkpt lat="46.21521" lon="6.50328">
        <ele>909.01171875</ele>
        <time>2021-08-22T16:03:26Z</time>
      </trkpt>
      <trkpt lat="46.21518" lon="6.50327">
        <ele>909</ele>
        <time>2021-08-22T16:03:27Z</time>
      </trkpt>
      <trkpt lat="46.21503" lon="6.50323">
        <ele>908.93359375</ele>
        <time>2021-08-22T16:03:31Z</time>
      </trkpt>
      <trkpt lat="46.21485" lon="6.5032">
        <ele>908.6484375</ele>
        <time>2021-08-22T16:03:35Z</time>
      </trkpt>
      <trkpt lat="46.21437" lon="6.50314">
        <ele>908</ele>
        <time>2021-08-22T16:03:45Z</time>
      </trkpt>
      <trkpt lat="46.21415" lon="6.50319">
        <ele>907.3125</ele>
        <time>2021-08-22T16:03:49Z</time>
      </trkpt>
      <trkpt lat="46.21374" lon="6.50313">
        <ele>906.92578125</ele>
        <time>2021-08-22T16:03:55Z</time>
      </trkpt>
      <trkpt lat="46.21367" lon="6.50313">
        <ele>906.8125</ele>
        <time>2021-08-22T16:03:56Z</time>
      </trkpt>
      <trkpt lat="46.21354" lon="6.50313">
        <ele>906.59375</ele>
        <time>2021-08-22T16:03:58Z</time>
      </trkpt>
      <trkpt lat="46.21348" lon="6.50311">
        <ele>906.39453125</ele>
        <time>2021-08-22T16:03:59Z</time>
      </trkpt>
      <trkpt lat="46.21315" lon="6.50294">
        <ele>904.48828125</ele>
        <time>2021-08-22T16:04:04Z</time>
      </trkpt>
      <trkpt lat="46.21293" lon="6.50289">
        <ele>903.23046875</ele>
        <time>2021-08-22T16:04:07Z</time>
      </trkpt>
      <trkpt lat="46.21198" lon="6.50273">
        <ele>899.30859375</ele>
        <time>2021-08-22T16:04:21Z</time>
      </trkpt>
      <trkpt lat="46.21141" lon="6.50264">
        <ele>899.203125</ele>
        <time>2021-08-22T16:04:30Z</time>
      </trkpt>
      <trkpt lat="46.21098" lon="6.5025">
        <ele>898.5078125</ele>
        <time>2021-08-22T16:04:37Z</time>
      </trkpt>
      <trkpt lat="46.2107" lon="6.50239">
        <ele>897.8671875</ele>
        <time>2021-08-22T16:04:41Z</time>
      </trkpt>
      <trkpt lat="46.20967" lon="6.50207">
        <ele>895.703125</ele>
        <time>2021-08-22T16:04:57Z</time>
      </trkpt>
      <trkpt lat="46.20938" lon="6.50197">
        <ele>895.6640625</ele>
        <time>2021-08-22T16:05:02Z</time>
      </trkpt>
      <trkpt lat="46.20933" lon="6.50196">
        <ele>895.66796875</ele>
        <time>2021-08-22T16:05:03Z</time>
      </trkpt>
      <trkpt lat="46.20928" lon="6.50195">
        <ele>895.6640625</ele>
        <time>2021-08-22T16:05:04Z</time>
      </trkpt>
      <trkpt lat="46.20923" lon="6.50194">
        <ele>895.59375</ele>
        <time>2021-08-22T16:05:05Z</time>
      </trkpt>
      <trkpt lat="46.20918" lon="6.50192">
        <ele>895.484375</ele>
        <time>2021-08-22T16:05:06Z</time>
      </trkpt>
      <trkpt lat="46.20836" lon="6.50177">
        <ele>893.7421875</ele>
        <time>2021-08-22T16:05:23Z</time>
      </trkpt>
      <trkpt lat="46.20805" lon="6.50185">
        <ele>893.15625</ele>
        <time>2021-08-22T16:05:32Z</time>
      </trkpt>
      <trkpt lat="46.208" lon="6.50185">
        <ele>893.00390625</ele>
        <time>2021-08-22T16:05:33Z</time>
      </trkpt>
      <trkpt lat="46.20755" lon="6.50193">
        <ele>891.8671875</ele>
        <time>2021-08-22T16:05:41Z</time>
      </trkpt>
      <trkpt lat="46.20722" lon="6.50205">
        <ele>891.4296875</ele>
        <time>2021-08-22T16:05:46Z</time>
      </trkpt>
      <trkpt lat="46.20614" lon="6.50228">
        <ele>893.6171875</ele>
        <time>2021-08-22T16:06:03Z</time>
      </trkpt>
      <trkpt lat="46.20522" lon="6.5021">
        <ele>892.80078125</ele>
        <time>2021-08-22T16:06:19Z</time>
      </trkpt>
      <trkpt lat="46.20456" lon="6.50201">
        <ele>893.984375</ele>
        <time>2021-08-22T16:06:32Z</time>
      </trkpt>
      <trkpt lat="46.204" lon="6.50218">
        <ele>894.2734375</ele>
        <time>2021-08-22T16:06:45Z</time>
      </trkpt>
      <trkpt lat="46.20306" lon="6.50248">
        <ele>893.78515625</ele>
        <time>2021-08-22T16:07:04Z</time>
      </trkpt>
      <trkpt lat="46.20287" lon="6.50255">
        <ele>893.58984375</ele>
        <time>2021-08-22T16:07:08Z</time>
      </trkpt>
      <trkpt lat="46.20265" lon="6.50261">
        <ele>893.2109375</ele>
        <time>2021-08-22T16:07:12Z</time>
      </trkpt>
      <trkpt lat="46.2026" lon="6.50259">
        <ele>892.89453125</ele>
        <time>2021-08-22T16:07:13Z</time>
      </trkpt>
      <trkpt lat="46.20256" lon="6.50254">
        <ele>892.38671875</ele>
        <time>2021-08-22T16:07:14Z</time>
      </trkpt>
      <trkpt lat="46.20253" lon="6.50247">
        <ele>891.75</ele>
        <time>2021-08-22T16:07:15Z</time>
      </trkpt>
      <trkpt lat="46.2025" lon="6.50238">
        <ele>891.01953125</ele>
        <time>2021-08-22T16:07:16Z</time>
      </trkpt>
      <trkpt lat="46.20248" lon="6.50228">
        <ele>890.203125</ele>
        <time>2021-08-22T16:07:17Z</time>
      </trkpt>
      <trkpt lat="46.20231" lon="6.50172">
        <ele>885.9375</ele>
        <time>2021-08-22T16:07:22Z</time>
      </trkpt>
      <trkpt lat="46.20228" lon="6.50159">
        <ele>885.12109375</ele>
        <time>2021-08-22T16:07:23Z</time>
      </trkpt>
      <trkpt lat="46.20197" lon="6.50065">
        <ele>879.01953125</ele>
        <time>2021-08-22T16:07:31Z</time>
      </trkpt>
      <trkpt lat="46.20182" lon="6.50035">
        <ele>878</ele>
        <time>2021-08-22T16:07:34Z</time>
      </trkpt>
      <trkpt lat="46.20147" lon="6.49967">
        <ele>878</ele>
        <time>2021-08-22T16:07:43Z</time>
      </trkpt>
      <trkpt lat="46.20145" lon="6.49962">
        <ele>878.0546875</ele>
        <time>2021-08-22T16:07:44Z</time>
      </trkpt>
      <trkpt lat="46.20142" lon="6.49959">
        <ele>878.1015625</ele>
        <time>2021-08-22T16:07:45Z</time>
      </trkpt>
      <trkpt lat="46.20138" lon="6.49957">
        <ele>878.09765625</ele>
        <time>2021-08-22T16:07:46Z</time>
      </trkpt>
      <trkpt lat="46.20134" lon="6.49954">
        <ele>878.0703125</ele>
        <time>2021-08-22T16:07:47Z</time>
      </trkpt>
      <trkpt lat="46.20077" lon="6.49923">
        <ele>879.46484375</ele>
        <time>2021-08-22T16:07:57Z</time>
      </trkpt>
      <trkpt lat="46.20057" lon="6.49907">
        <ele>880.03515625</ele>
        <time>2021-08-22T16:08:01Z</time>
      </trkpt>
      <trkpt lat="46.20054" lon="6.49903">
        <ele>880.06640625</ele>
        <time>2021-08-22T16:08:02Z</time>
      </trkpt>
      <trkpt lat="46.20021" lon="6.49842">
        <ele>880.96875</ele>
        <time>2021-08-22T16:08:14Z</time>
      </trkpt>
      <trkpt lat="46.20018" lon="6.49838">
        <ele>881.1875</ele>
        <time>2021-08-22T16:08:15Z</time>
      </trkpt>
      <trkpt lat="46.2001" lon="6.49826">
        <ele>881.68359375</ele>
        <time>2021-08-22T16:08:18Z</time>
      </trkpt>
      <trkpt lat="46.20006" lon="6.49824">
        <ele>881.65234375</ele>
        <time>2021-08-22T16:08:19Z</time>
      </trkpt>
      <trkpt lat="46.20003" lon="6.49821">
        <ele>881.625</ele>
        <time>2021-08-22T16:08:20Z</time>
      </trkpt>
      <trkpt lat="46.2" lon="6.49819">
        <ele>881.57421875</ele>
        <time>2021-08-22T16:08:21Z</time>
      </trkpt>
      <trkpt lat="46.19997" lon="6.49819">
        <ele>881.51171875</ele>
        <time>2021-08-22T16:08:22Z</time>
      </trkpt>
      <trkpt lat="46.19995" lon="6.49818">
        <ele>881.4296875</ele>
        <time>2021-08-22T16:08:23Z</time>
      </trkpt>
      <trkpt lat="46.19992" lon="6.49818">
        <ele>881.328125</ele>
        <time>2021-08-22T16:08:24Z</time>
      </trkpt>
      <trkpt lat="46.19983" lon="6.49814">
        <ele>881.33203125</ele>
        <time>2021-08-22T16:08:27Z</time>
      </trkpt>
      <trkpt lat="46.19981" lon="6.49809">
        <ele>881.40234375</ele>
        <time>2021-08-22T16:08:28Z</time>
      </trkpt>
      <trkpt lat="46.19977" lon="6.49799">
        <ele>881.48046875</ele>
        <time>2021-08-22T16:08:30Z</time>
      </trkpt>
      <trkpt lat="46.19973" lon="6.49796">
        <ele>881.671875</ele>
        <time>2021-08-22T16:08:31Z</time>
      </trkpt>
      <trkpt lat="46.19969" lon="6.49793">
        <ele>881.796875</ele>
        <time>2021-08-22T16:08:32Z</time>
      </trkpt>
      <trkpt lat="46.19964" lon="6.49791">
        <ele>881.83984375</ele>
        <time>2021-08-22T16:08:33Z</time>
      </trkpt>
      <trkpt lat="46.1996" lon="6.4979">
        <ele>881.9375</ele>
        <time>2021-08-22T16:08:34Z</time>
      </trkpt>
      <trkpt lat="46.19934" lon="6.4978">
        <ele>882.29296875</ele>
        <time>2021-08-22T16:08:40Z</time>
      </trkpt>
      <trkpt lat="46.19925" lon="6.49779">
        <ele>882.046875</ele>
        <time>2021-08-22T16:08:42Z</time>
      </trkpt>
      <trkpt lat="46.19921" lon="6.49781">
        <ele>881.77734375</ele>
        <time>2021-08-22T16:08:43Z</time>
      </trkpt>
      <trkpt lat="46.19917" lon="6.49782">
        <ele>881.53125</ele>
        <time>2021-08-22T16:08:44Z</time>
      </trkpt>
      <trkpt lat="46.19913" lon="6.49782">
        <ele>881.37890625</ele>
        <time>2021-08-22T16:08:45Z</time>
      </trkpt>
      <trkpt lat="46.19909" lon="6.49782">
        <ele>881.2421875</ele>
        <time>2021-08-22T16:08:46Z</time>
      </trkpt>
      <trkpt lat="46.19905" lon="6.49783">
        <ele>881.078125</ele>
        <time>2021-08-22T16:08:47Z</time>
      </trkpt>
      <trkpt lat="46.19901" lon="6.49787">
        <ele>880.76171875</ele>
        <time>2021-08-22T16:08:48Z</time>
      </trkpt>
      <trkpt lat="46.19899" lon="6.49793">
        <ele>880.3515625</ele>
        <time>2021-08-22T16:08:49Z</time>
      </trkpt>
      <trkpt lat="46.19896" lon="6.49801">
        <ele>879.9609375</ele>
        <time>2021-08-22T16:08:50Z</time>
      </trkpt>
      <trkpt lat="46.19892" lon="6.49811">
        <ele>879.74609375</ele>
        <time>2021-08-22T16:08:51Z</time>
      </trkpt>
      <trkpt lat="46.19889" lon="6.49823">
        <ele>879.421875</ele>
        <time>2021-08-22T16:08:52Z</time>
      </trkpt>
      <trkpt lat="46.19887" lon="6.49835">
        <ele>879.19140625</ele>
        <time>2021-08-22T16:08:53Z</time>
      </trkpt>
      <trkpt lat="46.19883" lon="6.49872">
        <ele>879</ele>
        <time>2021-08-22T16:08:56Z</time>
      </trkpt>
      <trkpt lat="46.19876" lon="6.49916">
        <ele>879</ele>
        <time>2021-08-22T16:09:00Z</time>
      </trkpt>
      <trkpt lat="46.19873" lon="6.49926">
        <ele>879</ele>
        <time>2021-08-22T16:09:01Z</time>
      </trkpt>
      <trkpt lat="46.19866" lon="6.49932">
        <ele>879</ele>
        <time>2021-08-22T16:09:02Z</time>
      </trkpt>
      <trkpt lat="46.19859" lon="6.49935">
        <ele>879</ele>
        <time>2021-08-22T16:09:03Z</time>
      </trkpt>
      <trkpt lat="46.19839" lon="6.49938">
        <ele>879</ele>
        <time>2021-08-22T16:09:06Z</time>
      </trkpt>
      <trkpt lat="46.19828" lon="6.4994">
        <ele>879</ele>
        <time>2021-08-22T16:09:08Z</time>
      </trkpt>
      <trkpt lat="46.19791" lon="6.49899">
        <ele>879</ele>
        <time>2021-08-22T16:09:16Z</time>
      </trkpt>
      <trkpt lat="46.19778" lon="6.49874">
        <ele>879</ele>
        <time>2021-08-22T16:09:19Z</time>
      </trkpt>
      <trkpt lat="46.19763" lon="6.49871">
        <ele>879</ele>
        <time>2021-08-22T16:09:22Z</time>
      </trkpt>
      <trkpt lat="46.19688" lon="6.49899">
        <ele>879</ele>
        <time>2021-08-22T16:09:36Z</time>
      </trkpt>
      <trkpt lat="46.19672" lon="6.49904">
        <ele>879</ele>
        <time>2021-08-22T16:09:40Z</time>
      </trkpt>
      <trkpt lat="46.1965" lon="6.49888">
        <ele>878.7421875</ele>
        <time>2021-08-22T16:09:45Z</time>
      </trkpt>
      <trkpt lat="46.19643" lon="6.49876">
        <ele>878.48046875</ele>
        <time>2021-08-22T16:09:47Z</time>
      </trkpt>
      <trkpt lat="46.19617" lon="6.49859">
        <ele>878</ele>
        <time>2021-08-22T16:09:52Z</time>
      </trkpt>
      <trkpt lat="46.19579" lon="6.49856">
        <ele>877.1640625</ele>
        <time>2021-08-22T16:09:58Z</time>
      </trkpt>
      <trkpt lat="46.1954" lon="6.49808">
        <ele>875.77734375</ele>
        <time>2021-08-22T16:10:06Z</time>
      </trkpt>
      <trkpt lat="46.19535" lon="6.49802">
        <ele>875.58203125</ele>
        <time>2021-08-22T16:10:07Z</time>
      </trkpt>
      <trkpt lat="46.1953" lon="6.49796">
        <ele>875.40625</ele>
        <time>2021-08-22T16:10:08Z</time>
      </trkpt>
      <trkpt lat="46.19526" lon="6.4979">
        <ele>875.27734375</ele>
        <time>2021-08-22T16:10:09Z</time>
      </trkpt>
      <trkpt lat="46.19525" lon="6.49783">
        <ele>875.2265625</ele>
        <time>2021-08-22T16:10:10Z</time>
      </trkpt>
      <trkpt lat="46.19525" lon="6.49776">
        <ele>875.2109375</ele>
        <time>2021-08-22T16:10:11Z</time>
      </trkpt>
      <trkpt lat="46.19524" lon="6.49769">
        <ele>875.19921875</ele>
        <time>2021-08-22T16:10:12Z</time>
      </trkpt>
      <trkpt lat="46.19523" lon="6.49762">
        <ele>875.1640625</ele>
        <time>2021-08-22T16:10:13Z</time>
      </trkpt>
      <trkpt lat="46.19522" lon="6.49755">
        <ele>875.1171875</ele>
        <time>2021-08-22T16:10:14Z</time>
      </trkpt>
      <trkpt lat="46.1952" lon="6.49749">
        <ele>875.046875</ele>
        <time>2021-08-22T16:10:15Z</time>
      </trkpt>
      <trkpt lat="46.19517" lon="6.49743">
        <ele>874.94921875</ele>
        <time>2021-08-22T16:10:16Z</time>
      </trkpt>
      <trkpt lat="46.19514" lon="6.49738">
        <ele>875.0078125</ele>
        <time>2021-08-22T16:10:17Z</time>
      </trkpt>
      <trkpt lat="46.19512" lon="6.49732">
        <ele>875.07421875</ele>
        <time>2021-08-22T16:10:18Z</time>
      </trkpt>
      <trkpt lat="46.19512" lon="6.49727">
        <ele>875.1953125</ele>
        <time>2021-08-22T16:10:19Z</time>
      </trkpt>
      <trkpt lat="46.19513" lon="6.49721">
        <ele>875.40234375</ele>
        <time>2021-08-22T16:10:20Z</time>
      </trkpt>
      <trkpt lat="46.19514" lon="6.49708">
        <ele>876.00390625</ele>
        <time>2021-08-22T16:10:23Z</time>
      </trkpt>
      <trkpt lat="46.19513" lon="6.49704">
        <ele>876.0625</ele>
        <time>2021-08-22T16:10:24Z</time>
      </trkpt>
      <trkpt lat="46.19511" lon="6.49702">
        <ele>876.0546875</ele>
        <time>2021-08-22T16:10:25Z</time>
      </trkpt>
      <trkpt lat="46.19508" lon="6.497">
        <ele>875.99609375</ele>
        <time>2021-08-22T16:10:26Z</time>
      </trkpt>
      <trkpt lat="46.19505" lon="6.49698">
        <ele>875.93359375</ele>
        <time>2021-08-22T16:10:27Z</time>
      </trkpt>
      <trkpt lat="46.19502" lon="6.49696">
        <ele>875.8984375</ele>
        <time>2021-08-22T16:10:28Z</time>
      </trkpt>
      <trkpt lat="46.19482" lon="6.49676">
        <ele>875.87890625</ele>
        <time>2021-08-22T16:10:36Z</time>
      </trkpt>
      <trkpt lat="46.19478" lon="6.49671">
        <ele>875.90234375</ele>
        <time>2021-08-22T16:10:38Z</time>
      </trkpt>
      <trkpt lat="46.19472" lon="6.49656">
        <ele>876.58984375</ele>
        <time>2021-08-22T16:10:42Z</time>
      </trkpt>
      <trkpt lat="46.19466" lon="6.49625">
        <ele>878.82421875</ele>
        <time>2021-08-22T16:10:49Z</time>
      </trkpt>
      <trkpt lat="46.19465" lon="6.49618">
        <ele>879.53125</ele>
        <time>2021-08-22T16:10:51Z</time>
      </trkpt>
      <trkpt lat="46.19464" lon="6.49617">
        <ele>879.65625</ele>
        <time>2021-08-22T16:10:52Z</time>
      </trkpt>
      <trkpt lat="46.19462" lon="6.49618">
        <ele>879.51171875</ele>
        <time>2021-08-22T16:10:53Z</time>
      </trkpt>
      <trkpt lat="46.19461" lon="6.4962">
        <ele>879.171875</ele>
        <time>2021-08-22T16:10:54Z</time>
      </trkpt>
      <trkpt lat="46.19461" lon="6.49624">
        <ele>878.8125</ele>
        <time>2021-08-22T16:10:55Z</time>
      </trkpt>
      <trkpt lat="46.19461" lon="6.49628">
        <ele>878.39453125</ele>
        <time>2021-08-22T16:10:56Z</time>
      </trkpt>
      <trkpt lat="46.19463" lon="6.49632">
        <ele>877.94140625</ele>
        <time>2021-08-22T16:10:57Z</time>
      </trkpt>
      <trkpt lat="46.19464" lon="6.49638">
        <ele>877.5703125</ele>
        <time>2021-08-22T16:10:58Z</time>
      </trkpt>
      <trkpt lat="46.19463" lon="6.49644">
        <ele>877.1328125</ele>
        <time>2021-08-22T16:10:59Z</time>
      </trkpt>
      <trkpt lat="46.19448" lon="6.49646">
        <ele>876.16015625</ele>
        <time>2021-08-22T16:11:03Z</time>
      </trkpt>
      <trkpt lat="46.1943" lon="6.49643">
        <ele>875.421875</ele>
        <time>2021-08-22T16:11:12Z</time>
      </trkpt>
      <trkpt lat="46.19428" lon="6.49638">
        <ele>875.796875</ele>
        <time>2021-08-22T16:11:18Z</time>
      </trkpt>
      <trkpt lat="46.19421" lon="6.4963">
        <ele>876.171875</ele>
        <time>2021-08-22T16:11:25Z</time>
      </trkpt>
      <trkpt lat="46.19418" lon="6.49635">
        <ele>875.44921875</ele>
        <time>2021-08-22T16:11:29Z</time>
      </trkpt>
      <trkpt lat="46.19419" lon="6.49644">
        <ele>874.46484375</ele>
        <time>2021-08-22T16:11:44Z</time>
      </trkpt>
      <trkpt lat="46.19422" lon="6.49646">
        <ele>874.45703125</ele>
        <time>2021-08-22T16:11:57Z</time>
      </trkpt>
      <trkpt lat="46.1942" lon="6.49646">
        <ele>874.3125</ele>
        <time>2021-08-22T16:12:15Z</time>
      </trkpt>
      <trkpt lat="46.1942" lon="6.49647">
        <ele>874.3125</ele>
        <time>2021-08-22T16:12:56Z</time>
      </trkpt>
      <trkpt lat="46.19418" lon="6.49644">
        <ele>874.44921875</ele>
        <time>2021-08-22T16:13:30Z</time>
      </trkpt>
      <trkpt lat="46.19421" lon="6.49646">
        <ele>874.45703125</ele>
        <time>2021-08-22T16:13:47Z</time>
      </trkpt>
    </trkseg>
  </trk>
</gpx>